BA1492 / G-EUYF 7700 Squawk Report (15th of September, 2021)

Aircraft A320 Reg No. G-EUYF Age 11 years old
Model A320 Jet engines 2 First flight 12-01-10
Registered 28-01-10 Rollout 01-10 Delivered 28-01-10
Construction No. 4185 Line No. N/A Series 232
ADSHEX 40615B Airline name British Airways Owner N/A
Airfield based Heathrow~Gtr London~G First tracked N/A

Flight history for G-EUYF

Route Flight No Date Playback
Gibraltar (GIB) - Heathrow (LHR) BA493 2021-10-22 12:32:00
Heathrow (LHR) - Gibraltar (GIB) BA492 2021-10-22 09:52:00
Zurich (ZRH) - Heathrow (LHR) BA717 2021-10-22 06:13:00
Heathrow (LHR) - Zurich (ZRH) BA716 2021-10-21 17:32:00
Zurich (ZRH) - Heathrow (LHR) BA713 2021-10-21 14:57:00
Heathrow (LHR) - Zurich (ZRH) BA712 2021-10-21 10:24:00
Munich Airport (MUC) - Heathrow (LHR) BA947 2021-10-21 08:41:00
Heathrow (LHR) - Munich Airport (MUC) BA954 2021-10-21 05:06:00
Copenhagen Airport (CPH) - Heathrow (LHR) BA815 2021-10-20 13:44:00
Heathrow (LHR) - Copenhagen Airport (CPH) BA814 2021-10-20 10:46:00
Linate (LIN) - Heathrow (LHR) BA561 2021-10-20 09:12:00
Heathrow (LHR) - Linate (LIN) BA570 2021-10-19 20:08:00
Bari (BRI) - Heathrow (LHR) BA2591 2021-10-19 18:17:00
Heathrow (LHR) - Bari (BRI) BA2590 2021-10-19 12:36:00
Fiumicino (FCO) - Heathrow (LHR) BA555 2021-10-18 20:53:00
Heathrow (LHR) - Fiumicino (FCO) BA554 2021-10-18 18:35:00
Barcelona–El Prat (BCN) - Heathrow (LHR) BA479 2021-10-18 15:10:00
Heathrow (LHR) - Barcelona–El Prat (BCN) BA478 2021-10-18 10:28:00
Geneve Cointrin (GVA) - Heathrow (LHR) BA735 2021-10-18 07:39:00
Heathrow (LHR) - Geneve Cointrin (GVA) BA734 2021-10-17 16:24:00
Time Lat Lon Altitude Heading Speed Vertical Rate
2021-09-15 18:30:52 GMT 55.876099 -4.425742 -25 227 131 -192
2021-09-15 18:30:47 GMT 55.878094 -4.421997 25 227 130 -704
2021-09-15 18:30:34 GMT 55.883167 -4.412384 175 227 128 -640
2021-09-15 18:30:27 GMT 55.886169 -4.406849 275 227 128 -640
2021-09-15 18:30:17 GMT 55.890526 -4.398651 375 227 129 -704
2021-09-15 18:30:16 GMT 55.890884 -4.397944 400 227 129 -704
2021-09-15 18:30:13 GMT 55.892899 -4.394198 450 227 129 -704
2021-09-15 18:30:11 GMT 55.892899 -4.394198 450 227 129 -704
2021-09-15 18:30:09 GMT 55.893738 -4.392643 475 227 129 -704
2021-09-15 18:30:08 GMT 55.894108 -4.391956 475 227 129 -704
2021-09-15 18:30:07 GMT 55.894573 -4.391098 500 227 129 -704
2021-09-15 18:30:05 GMT 55.895279 -4.389787 525 227 129 -704
2021-09-15 18:30:04 GMT 55.895878 -4.388609 525 227 129 -704
2021-09-15 18:30:02 GMT 55.896713 -4.387064 550 227 128 -704
2021-09-15 18:30:01 GMT 55.897064 -4.386375 575 227 128 -704
2021-09-15 18:30:00 GMT 55.897831 -4.385004 575 227 129 -704
2021-09-15 18:29:58 GMT 55.898159 -4.384317 600 227 129 -704
2021-09-15 18:29:57 GMT 55.898579 -4.383545 600 227 129 -704
2021-09-15 18:29:55 GMT 55.899399 -4.381964 625 227 129 -704
2021-09-15 18:29:54 GMT 55.900253 -4.380455 650 227 129 -704
2021-09-15 18:29:52 GMT 55.900623 -4.379683 675 227 129 -704
2021-09-15 18:29:51 GMT 55.901596 -4.377885 700 227 129 -704
2021-09-15 18:29:49 GMT 55.902023 -4.377108 700 227 129 -704
2021-09-15 18:29:47 GMT 55.902767 -4.375648 725 227 129 -704
2021-09-15 18:29:45 GMT 55.904068 -4.373224 750 227 129 -704
2021-09-15 18:29:44 GMT 55.904068 -4.373224 775 227 130 -768
2021-09-15 18:29:42 GMT 55.904800 -4.371893 775 227 130 -704
2021-09-15 18:29:41 GMT 55.905190 -4.371099 800 227 130 -704
2021-09-15 18:29:40 GMT 55.906494 -4.368730 825 227 130 -768
2021-09-15 18:29:38 GMT 55.906494 -4.368730 825 227 130 -768
2021-09-15 18:29:36 GMT 55.907421 -4.366980 875 227 130 -704
2021-09-15 18:29:35 GMT 55.907841 -4.366207 875 227 130 -704
2021-09-15 18:29:32 GMT 55.909515 -4.363117 925 227 130 -640
2021-09-15 18:29:28 GMT 55.911053 -4.360199 950 227 130 -640
2021-09-15 18:29:26 GMT 55.911472 -4.359426 975 227 130 -640
2021-09-15 18:29:25 GMT 55.912262 -4.357910 1,000 227 130 -640
2021-09-15 18:29:23 GMT 55.912727 -4.357023 1,000 227 130 -640
2021-09-15 18:29:22 GMT 55.913197 -4.356165 1,025 227 130 -640
2021-09-15 18:29:20 GMT 55.914047 -4.354581 1,025 227 130 -576
2021-09-15 18:29:19 GMT 55.914505 -4.353749 1,050 227 130 -576
2021-09-15 18:29:17 GMT 55.915337 -4.352217 1,075 227 130 -576
2021-09-15 18:29:16 GMT 55.915558 -4.351751 1,075 227 130 -576
2021-09-15 18:29:13 GMT 55.916885 -4.349254 1,100 227 130 -640
2021-09-15 18:29:12 GMT 55.917709 -4.347673 1,125 227 130 -576
2021-09-15 18:29:09 GMT 55.919338 -4.344749 1,150 227 130 -640
2021-09-15 18:29:07 GMT 55.919338 -4.344749 1,175 227 130 -640
2021-09-15 18:29:05 GMT 55.920177 -4.343119 1,175 227 130 -576
2021-09-15 18:29:04 GMT 55.920593 -4.342346 1,200 227 130 -576
2021-09-15 18:29:01 GMT 55.921875 -4.340016 1,225 227 130 -576
2021-09-15 18:28:59 GMT 55.922699 -4.338434 1,250 226 130 -640
2021-09-15 18:28:57 GMT 55.923901 -4.336166 1,275 227 130 -704
2021-09-15 18:28:55 GMT 55.924366 -4.335394 1,300 227 130 -704
2021-09-15 18:28:53 GMT 55.925171 -4.333857 1,325 227 130 -704
2021-09-15 18:28:51 GMT 55.926086 -4.332192 1,350 227 130 -704
2021-09-15 18:28:50 GMT 55.926453 -4.331443 1,350 227 130 -704
2021-09-15 18:28:49 GMT 55.927345 -4.329815 1,375 227 130 -768
2021-09-15 18:28:47 GMT 55.927826 -4.328946 1,400 227 130 -768
2021-09-15 18:28:45 GMT 55.928650 -4.327365 1,425 227 131 -704
2021-09-15 18:28:44 GMT 55.929024 -4.326639 1,425 227 132 -768
2021-09-15 18:28:42 GMT 55.929932 -4.325034 1,450 227 132 -832
2021-09-15 18:28:41 GMT 55.930389 -4.324119 1,475 227 133 -832
2021-09-15 18:28:39 GMT 55.931213 -4.322538 1,500 227 134 -896
2021-09-15 18:28:38 GMT 55.931629 -4.321747 1,525 227 134 -896
2021-09-15 18:28:36 GMT 55.932423 -4.320202 1,550 228 135 -896
2021-09-15 18:28:35 GMT 55.932793 -4.319601 1,550 227 135 -960
2021-09-15 18:28:33 GMT 55.933582 -4.318056 1,600 227 135 -896
2021-09-15 18:28:31 GMT 55.934555 -4.316129 1,625 228 136 -896
2021-09-15 18:28:29 GMT 55.935352 -4.314709 1,650 227 137 -896
2021-09-15 18:28:28 GMT 55.935791 -4.313882 1,675 227 137 -832
2021-09-15 18:28:26 GMT 55.936657 -4.312220 1,700 227 137 -768
2021-09-15 18:28:25 GMT 55.937496 -4.310589 1,725 227 140 -640
2021-09-15 18:28:22 GMT 55.938400 -4.308888 1,725 227 141 -576
2021-09-15 18:28:21 GMT 55.939270 -4.307223 1,775 227 143 -640
2021-09-15 18:28:18 GMT 55.940289 -4.305439 1,800 227 143 -704
2021-09-15 18:28:17 GMT 55.941101 -4.303811 1,825 227 144 -704
2021-09-15 18:28:15 GMT 55.941605 -4.302895 1,825 227 144 -704
2021-09-15 18:28:14 GMT 55.942059 -4.302092 1,825 227 145 -640
2021-09-15 18:28:12 GMT 55.943069 -4.300065 1,850 228 147 -576
2021-09-15 18:28:11 GMT 55.943573 -4.299150 1,850 228 147 -576
2021-09-15 18:28:09 GMT 55.944572 -4.297285 1,875 228 148 -640
2021-09-15 18:28:07 GMT 55.945316 -4.295740 1,900 228 149 -640
2021-09-15 18:28:06 GMT 55.945782 -4.294796 1,900 228 151 -704
2021-09-15 18:28:04 GMT 55.947189 -4.292075 1,925 228 153 -768
2021-09-15 18:28:03 GMT 55.947189 -4.292075 1,950 228 153 -768
2021-09-15 18:28:02 GMT 55.947643 -4.291191 1,950 228 153 -768
2021-09-15 18:28:01 GMT 55.948608 -4.289246 1,975 229 154 -768
2021-09-15 18:27:59 GMT 55.949085 -4.288359 1,975 229 154 -768
2021-09-15 18:27:58 GMT 55.949596 -4.287329 2,000 229 155 -768
2021-09-15 18:27:56 GMT 55.951126 -4.284252 2,025 229 155 -704
2021-09-15 18:27:55 GMT 55.951126 -4.284252 2,050 229 155 -704
2021-09-15 18:27:54 GMT 55.951996 -4.282504 2,050 230 155 -704
2021-09-15 18:27:52 GMT 55.952484 -4.281492 2,075 230 155 -704
2021-09-15 18:27:51 GMT 55.953369 -4.279591 2,100 230 156 -640
2021-09-15 18:27:48 GMT 55.954346 -4.277630 2,100 230 156 -576
2021-09-15 18:27:47 GMT 55.954811 -4.276600 2,125 230 155 -576
2021-09-15 18:27:46 GMT 55.955750 -4.274680 2,150 230 155 -576
2021-09-15 18:27:44 GMT 55.956253 -4.273598 2,150 231 156 -576
2021-09-15 18:27:43 GMT 55.956711 -4.272600 2,175 231 156 -512
2021-09-15 18:27:41 GMT 55.957603 -4.270678 2,175 231 154 -512
2021-09-15 18:27:39 GMT 55.958588 -4.268521 2,200 232 155 -448
2021-09-15 18:27:38 GMT 55.959045 -4.267523 2,200 233 154 -448
2021-09-15 18:27:37 GMT 55.959824 -4.265692 2,225 234 155 -448
2021-09-15 18:27:35 GMT 55.960258 -4.264669 2,225 235 155 -448
2021-09-15 18:27:34 GMT 55.961098 -4.262609 2,250 238 155 -448
2021-09-15 18:27:32 GMT 55.961426 -4.261697 2,250 238 155 -448
2021-09-15 18:27:30 GMT 55.962307 -4.259090 2,275 244 154 -384
2021-09-15 18:27:28 GMT 55.962982 -4.256620 2,300 244 154 -384
2021-09-15 18:27:26 GMT 55.963470 -4.254284 2,300 255 154 -448
2021-09-15 18:27:24 GMT 55.963749 -4.252224 2,325 262 154 -512
2021-09-15 18:27:22 GMT 55.963989 -4.249711 2,325 266 154 -512
2021-09-15 18:27:21 GMT 55.964077 -4.248362 2,350 268 155 -576
2021-09-15 18:27:20 GMT 55.964123 -4.245958 2,350 269 155 -576
2021-09-15 18:27:17 GMT 55.964218 -4.241971 2,400 269 156 -704
2021-09-15 18:27:15 GMT 55.964218 -4.240806 2,400 269 156 -704
2021-09-15 18:27:14 GMT 55.964260 -4.238319 2,425 269 157 -768
2021-09-15 18:27:12 GMT 55.964264 -4.236977 2,425 269 157 -768
2021-09-15 18:27:11 GMT 55.964310 -4.235315 2,450 269 157 -768
2021-09-15 18:27:09 GMT 55.964310 -4.232566 2,475 269 158 -768
2021-09-15 18:27:08 GMT 55.964355 -4.231796 2,475 269 158 -768
2021-09-15 18:27:04 GMT 55.964401 -4.226389 2,525 269 160 -832
2021-09-15 18:27:02 GMT 55.964451 -4.224930 2,550 269 161 -832
2021-09-15 18:27:01 GMT 55.964451 -4.222441 2,575 269 161 -896
2021-09-15 18:26:59 GMT 55.964493 -4.221080 2,600 269 161 -960
2021-09-15 18:26:58 GMT 55.964539 -4.218334 2,625 269 161 -1024
2021-09-15 18:26:55 GMT 55.964542 -4.216433 2,650 269 162 -960
2021-09-15 18:26:54 GMT 55.964584 -4.214505 2,675 269 162 -1024
2021-09-15 18:26:53 GMT 55.964588 -4.212999 2,700 269 162 -1024
2021-09-15 18:26:51 GMT 55.964630 -4.210427 2,725 269 162 -1024
2021-09-15 18:26:49 GMT 55.964676 -4.207348 2,775 269 162 -1024
2021-09-15 18:26:48 GMT 55.964722 -4.206099 2,775 269 163 -1024
2021-09-15 18:26:47 GMT 55.964767 -4.203602 2,800 269 163 -1024
2021-09-15 18:26:45 GMT 55.964775 -4.200640 2,850 269 163 -960
2021-09-15 18:26:43 GMT 55.964821 -4.199352 2,850 269 163 -960
2021-09-15 18:26:41 GMT 55.964859 -4.196777 2,900 269 163 -960
2021-09-15 18:26:40 GMT 55.964859 -4.195279 2,900 269 163 -832
2021-09-15 18:26:38 GMT 55.964905 -4.193115 2,925 270 163 -704
2021-09-15 18:26:37 GMT 55.964912 -4.190426 2,950 270 162 -640
2021-09-15 18:26:35 GMT 55.964905 -4.188621 2,975 270 162 -640
2021-09-15 18:26:33 GMT 55.964905 -4.186374 3,000 271 162 -576
2021-09-15 18:26:32 GMT 55.964912 -4.185104 3,000 272 161 -512
2021-09-15 18:26:31 GMT 55.964905 -4.183710 3,000 272 161 -448
2021-09-15 18:26:29 GMT 55.964867 -4.181156 3,025 273 160 -256
2021-09-15 18:26:27 GMT 55.964821 -4.177895 3,025 274 160 -128
2021-09-15 18:26:26 GMT 55.964767 -4.176719 3,025 276 159 -64
2021-09-15 18:26:24 GMT 55.964630 -4.174056 3,025 278 159 192
2021-09-15 18:26:23 GMT 55.964542 -4.172916 3,025 279 159 384
2021-09-15 18:26:22 GMT 55.964310 -4.170061 3,000 283 162 576
2021-09-15 18:26:20 GMT 55.964214 -4.169312 3,000 286 164 512
2021-09-15 18:26:18 GMT 55.963844 -4.166651 2,975 291 169 192
2021-09-15 18:26:17 GMT 55.963577 -4.165316 2,975 294 170 128
2021-09-15 18:26:15 GMT 55.962959 -4.162788 2,975 300 174 -192
2021-09-15 18:26:14 GMT 55.962399 -4.160986 2,975 302 175 -192
2021-09-15 18:26:12 GMT 55.961700 -4.158991 2,975 307 177 -384
2021-09-15 18:26:09 GMT 55.960144 -4.155412 3,000 313 181 -576
2021-09-15 18:26:07 GMT 55.958908 -4.153165 3,025 315 182 -512
2021-09-15 18:26:06 GMT 55.958359 -4.152166 3,050 316 182 -512
2021-09-15 18:26:05 GMT 55.957142 -4.150000 3,050 316 183 -448
2021-09-15 18:26:03 GMT 55.956535 -4.148970 3,075 316 183 -448
2021-09-15 18:26:01 GMT 55.955383 -4.147006 3,075 316 183 -448
2021-09-15 18:26:00 GMT 55.954765 -4.145880 3,100 316 183 -448
2021-09-15 18:25:59 GMT 55.952995 -4.142790 3,100 316 183 -448
2021-09-15 18:25:57 GMT 55.952995 -4.142790 3,100 316 183 -448
2021-09-15 18:25:56 GMT 55.951694 -4.140558 3,125 316 183 -384
2021-09-15 18:25:53 GMT 55.950481 -4.138412 3,150 316 184 -448
2021-09-15 18:25:51 GMT 55.949318 -4.136353 3,150 316 184 -448
2021-09-15 18:25:50 GMT 55.948746 -4.135437 3,175 316 184 -448
2021-09-15 18:25:48 GMT 55.947315 -4.132919 3,175 316 185 -512
2021-09-15 18:25:47 GMT 55.946823 -4.132025 3,200 316 185 -512
2021-09-15 18:25:46 GMT 55.945595 -4.129915 3,200 316 186 -512
2021-09-15 18:25:44 GMT 55.944946 -4.128779 3,225 316 187 -512
2021-09-15 18:25:43 GMT 55.943710 -4.126698 3,225 316 188 -512
2021-09-15 18:25:41 GMT 55.943115 -4.125616 3,250 316 188 -512
2021-09-15 18:25:39 GMT 55.941879 -4.123452 3,250 316 189 -512
2021-09-15 18:25:37 GMT 55.940613 -4.121161 3,275 316 190 -512
2021-09-15 18:25:36 GMT 55.939960 -4.120045 3,275 316 190 -512
2021-09-15 18:25:34 GMT 55.938751 -4.117899 3,300 316 192 -512
2021-09-15 18:25:31 GMT 55.936844 -4.114552 3,325 316 193 -512
2021-09-15 18:25:30 GMT 55.935471 -4.112216 3,325 316 194 -512
2021-09-15 18:25:28 GMT 55.934887 -4.111118 3,350 316 194 -512
2021-09-15 18:25:27 GMT 55.933537 -4.108715 3,350 316 195 -512
2021-09-15 18:25:25 GMT 55.932884 -4.107599 3,375 315 196 -512
2021-09-15 18:25:24 GMT 55.931492 -4.105196 3,400 316 197 -512
2021-09-15 18:25:22 GMT 55.930893 -4.104059 3,400 316 197 -512
2021-09-15 18:25:21 GMT 55.929840 -4.102228 3,400 315 197 -448
2021-09-15 18:25:19 GMT 55.929153 -4.100980 3,425 315 197 -448
2021-09-15 18:25:17 GMT 55.927765 -4.098501 3,425 315 197 -448
2021-09-15 18:25:16 GMT 55.926453 -4.096153 3,450 315 197 -384
2021-09-15 18:25:14 GMT 55.925812 -4.095068 3,450 315 197 -384
2021-09-15 18:25:12 GMT 55.924530 -4.092740 3,475 315 197 -192
2021-09-15 18:25:11 GMT 55.923901 -4.091635 3,475 315 197 -128
2021-09-15 18:25:10 GMT 55.922516 -4.089161 3,475 315 197 64
2021-09-15 18:25:08 GMT 55.921829 -4.087913 3,475 315 197 64
2021-09-15 18:25:06 GMT 55.920547 -4.085666 3,475 315 197 0
2021-09-15 18:25:05 GMT 55.919292 -4.083395 3,475 315 197 0
2021-09-15 18:25:03 GMT 55.918640 -4.082279 3,475 315 197 0
2021-09-15 18:25:02 GMT 55.917984 -4.081088 3,475 315 197 0
2021-09-15 18:25:00 GMT 55.916656 -4.078758 3,475 315 197 0
2021-09-15 18:24:59 GMT 55.916016 -4.077592 3,475 315 197 0
2021-09-15 18:24:57 GMT 55.914734 -4.075262 3,475 315 197 0
2021-09-15 18:24:56 GMT 55.914032 -4.074039 3,475 315 197 0
2021-09-15 18:24:54 GMT 55.912766 -4.071766 3,475 315 197 0
2021-09-15 18:24:53 GMT 55.912170 -4.070684 3,475 315 197 0
2021-09-15 18:24:52 GMT 55.910797 -4.068187 3,475 315 198 -64
2021-09-15 18:24:50 GMT 55.910168 -4.067087 3,475 315 198 -64
2021-09-15 18:24:48 GMT 55.907841 -4.062967 3,475 315 199 0
2021-09-15 18:24:46 GMT 55.907188 -4.061766 3,475 315 199 0
2021-09-15 18:24:44 GMT 55.905979 -4.059534 3,475 315 199 0
2021-09-15 18:24:43 GMT 55.905304 -4.058283 3,475 315 200 0
2021-09-15 18:24:42 GMT 55.903336 -4.054787 3,475 315 200 0
2021-09-15 18:24:40 GMT 55.902721 -4.053698 3,475 315 200 0
2021-09-15 18:24:38 GMT 55.902008 -4.052374 3,475 315 200 0
2021-09-15 18:24:36 GMT 55.900955 -4.050459 3,475 315 202 64
2021-09-15 18:24:35 GMT 55.900269 -4.049294 3,475 315 203 64
2021-09-15 18:24:33 GMT 55.898762 -4.046659 3,475 315 205 64
2021-09-15 18:24:32 GMT 55.897320 -4.044085 3,475 316 206 64
2021-09-15 18:24:30 GMT 55.896973 -4.043385 3,475 316 207 0
2021-09-15 18:24:29 GMT 55.895370 -4.040638 3,475 316 209 -64
2021-09-15 18:24:27 GMT 55.894730 -4.039473 3,475 317 210 -64
2021-09-15 18:24:26 GMT 55.894062 -4.038334 3,475 317 210 -64
2021-09-15 18:24:25 GMT 55.892570 -4.035845 3,475 317 213 -128
2021-09-15 18:24:23 GMT 55.891983 -4.034812 3,475 318 214 -128
2021-09-15 18:24:22 GMT 55.889824 -4.031296 3,475 318 214 -128
2021-09-15 18:24:20 GMT 55.889145 -4.030151 3,475 319 216 -128
2021-09-15 18:24:18 GMT 55.888474 -4.029150 3,500 319 216 -64
2021-09-15 18:24:16 GMT 55.887123 -4.027090 3,500 321 216 0
2021-09-15 18:24:15 GMT 55.886353 -4.025990 3,500 322 216 64
2021-09-15 18:24:13 GMT 55.884705 -4.023657 3,500 323 217 64
2021-09-15 18:24:12 GMT 55.883030 -4.021425 3,475 324 218 64
2021-09-15 18:24:09 GMT 55.881409 -4.019248 3,475 325 219 128
2021-09-15 18:24:07 GMT 55.879723 -4.017134 3,475 325 221 64
2021-09-15 18:24:06 GMT 55.878887 -4.016104 3,475 325 222 64
2021-09-15 18:24:04 GMT 55.877197 -4.014005 3,450 325 223 64
2021-09-15 18:24:03 GMT 55.875504 -4.011841 3,450 325 226 64
2021-09-15 18:24:01 GMT 55.874649 -4.010782 3,450 325 226 0
2021-09-15 18:23:59 GMT 55.872787 -4.008465 3,450 325 228 -64
2021-09-15 18:23:58 GMT 55.871998 -4.007435 3,450 325 230 -64
2021-09-15 18:23:57 GMT 55.870228 -4.005203 3,450 325 231 -64
2021-09-15 18:23:55 GMT 55.869324 -4.004100 3,475 325 233 -128
2021-09-15 18:23:53 GMT 55.867447 -4.001770 3,475 325 233 -64
2021-09-15 18:23:52 GMT 55.866623 -4.000688 3,475 325 233 -64
2021-09-15 18:23:50 GMT 55.864883 -3.998441 3,475 325 234 0
2021-09-15 18:23:48 GMT 55.863106 -3.996277 3,475 325 234 0
2021-09-15 18:23:47 GMT 55.862171 -3.995075 3,475 325 234 0
2021-09-15 18:23:46 GMT 55.861336 -3.993959 3,475 325 234 0
2021-09-15 18:23:44 GMT 55.859612 -3.991814 3,475 325 234 0
2021-09-15 18:23:43 GMT 55.858749 -3.990700 3,475 325 234 0
2021-09-15 18:23:41 GMT 55.857052 -3.988552 3,475 325 233 64
2021-09-15 18:23:40 GMT 55.856167 -3.987436 3,475 325 233 64
2021-09-15 18:23:39 GMT 55.854259 -3.985119 3,475 325 233 64
2021-09-15 18:23:36 GMT 55.852863 -3.983231 3,475 325 233 0
2021-09-15 18:23:35 GMT 55.851933 -3.982115 3,475 325 233 0
2021-09-15 18:23:33 GMT 55.850117 -3.979797 3,475 325 233 0
2021-09-15 18:23:32 GMT 55.849319 -3.978799 3,475 325 233 0
2021-09-15 18:23:31 GMT 55.848312 -3.977550 3,475 325 233 0
2021-09-15 18:23:29 GMT 55.846664 -3.975386 3,475 325 233 0
2021-09-15 18:23:28 GMT 55.844902 -3.973188 3,475 325 233 0
2021-09-15 18:23:26 GMT 55.843925 -3.971987 3,475 325 233 0
2021-09-15 18:23:25 GMT 55.842251 -3.969841 3,475 325 232 0
2021-09-15 18:23:22 GMT 55.839409 -3.966236 3,475 325 232 0
2021-09-15 18:23:20 GMT 55.838619 -3.965206 3,475 325 232 0
2021-09-15 18:23:18 GMT 55.836849 -3.962975 3,475 325 232 0
2021-09-15 18:23:17 GMT 55.835999 -3.961903 3,475 325 232 0
2021-09-15 18:23:16 GMT 55.834305 -3.959739 3,475 325 233 -64
2021-09-15 18:23:14 GMT 55.833069 -3.958158 3,475 325 233 -64
2021-09-15 18:23:12 GMT 55.831635 -3.956366 3,475 325 233 -64
2021-09-15 18:23:11 GMT 55.829727 -3.953876 3,475 325 233 -64
2021-09-15 18:23:09 GMT 55.828983 -3.952932 3,475 325 233 -64
2021-09-15 18:23:07 GMT 55.827026 -3.950529 3,500 325 233 -64
2021-09-15 18:23:06 GMT 55.826141 -3.949327 3,500 325 233 -64
2021-09-15 18:23:04 GMT 55.824280 -3.947005 3,500 325 234 0
2021-09-15 18:23:03 GMT 55.823349 -3.945894 3,500 325 234 0
2021-09-15 18:23:02 GMT 55.820755 -3.942594 3,500 325 234 64
2021-09-15 18:23:00 GMT 55.820755 -3.942594 3,500 325 234 64
2021-09-15 18:22:59 GMT 55.819016 -3.940346 3,500 325 235 64
2021-09-15 18:22:56 GMT 55.816319 -3.936968 3,475 325 238 64
2021-09-15 18:22:54 GMT 55.814548 -3.934736 3,475 325 239 64
2021-09-15 18:22:52 GMT 55.814037 -3.934050 3,475 325 240 0
2021-09-15 18:22:51 GMT 55.812038 -3.931561 3,475 325 243 0
2021-09-15 18:22:48 GMT 55.810173 -3.929157 3,475 325 243 0
2021-09-15 18:22:47 GMT 55.809151 -3.927870 3,475 325 245 0
2021-09-15 18:22:46 GMT 55.806404 -3.924351 3,475 325 248 64
2021-09-15 18:22:44 GMT 55.806404 -3.924351 3,475 325 249 0
2021-09-15 18:22:43 GMT 55.804779 -3.922286 3,475 325 251 0
2021-09-15 18:22:41 GMT 55.803799 -3.921089 3,475 325 252 0
2021-09-15 18:22:40 GMT 55.801575 -3.918207 3,475 325 255 -64
2021-09-15 18:22:38 GMT 55.800705 -3.917125 3,475 325 255 -64
2021-09-15 18:22:37 GMT 55.798828 -3.914712 3,475 325 257 -192
2021-09-15 18:22:35 GMT 55.797913 -3.913546 3,475 325 257 -192
2021-09-15 18:22:33 GMT 55.795883 -3.910961 3,500 325 260 -384
2021-09-15 18:22:32 GMT 55.794846 -3.909635 3,500 325 260 -448
2021-09-15 18:22:31 GMT 55.793060 -3.907387 3,525 325 261 -576
2021-09-15 18:22:29 GMT 55.791973 -3.905983 3,525 324 263 -640
2021-09-15 18:22:26 GMT 55.788849 -3.901978 3,550 324 264 -832
2021-09-15 18:22:24 GMT 55.787338 -3.899980 3,575 324 266 -960
2021-09-15 18:22:23 GMT 55.786247 -3.898602 3,600 324 266 -1024
2021-09-15 18:22:22 GMT 55.784271 -3.895985 3,650 324 266 -1216
2021-09-15 18:22:20 GMT 55.783310 -3.894737 3,650 324 266 -1216
2021-09-15 18:22:19 GMT 55.781204 -3.891990 3,700 324 267 -1344
2021-09-15 18:22:16 GMT 55.778320 -3.888245 3,775 324 267 -1472
2021-09-15 18:22:14 GMT 55.777355 -3.887014 3,800 324 267 -1472
2021-09-15 18:22:13 GMT 55.775070 -3.883917 3,850 324 268 -1472
2021-09-15 18:22:10 GMT 55.773956 -3.882465 3,875 324 268 -1472
2021-09-15 18:22:08 GMT 55.772415 -3.880504 3,925 324 268 -1472
2021-09-15 18:22:07 GMT 55.771023 -3.878689 3,950 324 269 -1472
2021-09-15 18:22:06 GMT 55.769028 -3.876093 4,000 325 269 -1472
2021-09-15 18:22:04 GMT 55.768044 -3.874826 4,025 325 268 -1472
2021-09-15 18:22:02 GMT 55.766136 -3.872337 4,075 325 268 -1408
2021-09-15 18:22:01 GMT 55.765137 -3.871099 4,100 325 269 -1408
2021-09-15 18:21:59 GMT 55.762115 -3.867354 4,150 326 269 -1408
2021-09-15 18:21:56 GMT 55.759899 -3.864698 4,200 327 270 -1408
2021-09-15 18:21:55 GMT 55.758865 -3.863442 4,250 327 269 -1472
2021-09-15 18:21:54 GMT 55.757904 -3.862277 4,250 328 270 -1472
2021-09-15 18:21:53 GMT 55.755753 -3.859863 4,325 329 270 -1536
2021-09-15 18:21:51 GMT 55.754452 -3.858519 4,350 330 270 -1600
2021-09-15 18:21:49 GMT 55.752457 -3.856451 4,400 332 270 -1664
2021-09-15 18:21:48 GMT 55.751404 -3.855452 4,425 333 270 -1664
2021-09-15 18:21:46 GMT 55.749332 -3.853540 4,475 335 270 -1920
2021-09-15 18:21:45 GMT 55.748245 -3.852539 4,500 336 270 -2048
2021-09-15 18:21:42 GMT 55.744907 -3.849936 4,600 339 269 -2176
2021-09-15 18:21:40 GMT 55.742477 -3.848211 4,700 339 269 -2112
2021-09-15 18:21:39 GMT 55.740162 -3.846588 4,750 340 268 -1984
2021-09-15 18:21:37 GMT 55.739136 -3.845881 4,800 340 268 -1856
2021-09-15 18:21:36 GMT 55.736298 -3.843966 4,850 340 268 -1536
2021-09-15 18:21:34 GMT 55.734154 -3.842554 4,900 340 268 -1216
2021-09-15 18:21:32 GMT 55.732956 -3.841719 4,925 340 269 -1088
2021-09-15 18:21:31 GMT 55.730804 -3.840237 4,950 340 270 -768
2021-09-15 18:21:29 GMT 55.729733 -3.839550 4,950 340 270 -704
2021-09-15 18:21:28 GMT 55.727005 -3.837724 4,975 340 271 -576
2021-09-15 18:21:25 GMT 55.723572 -3.835394 5,000 340 273 -448
2021-09-15 18:21:22 GMT 55.720093 -3.833063 5,025 340 276 -704
2021-09-15 18:21:20 GMT 55.718979 -3.832340 5,050 340 277 -832
2021-09-15 18:21:18 GMT 55.716789 -3.830881 5,075 340 277 -960
2021-09-15 18:21:17 GMT 55.715469 -3.829984 5,100 340 278 -1024
2021-09-15 18:21:15 GMT 55.713089 -3.828402 5,125 340 279 -1152
2021-09-15 18:21:14 GMT 55.711948 -3.827620 5,150 340 279 -1216
2021-09-15 18:21:12 GMT 55.709244 -3.825822 5,200 340 279 -1344
2021-09-15 18:21:11 GMT 55.706680 -3.824158 5,225 340 279 -1408
2021-09-15 18:21:09 GMT 55.705673 -3.823492 5,250 340 279 -1536
2021-09-15 18:21:07 GMT 55.703197 -3.821783 5,300 340 279 -1600
2021-09-15 18:21:06 GMT 55.702126 -3.821096 5,325 340 279 -1600
2021-09-15 18:21:05 GMT 55.699677 -3.819497 5,400 340 279 -1664
2021-09-15 18:21:02 GMT 55.695747 -3.816891 5,475 340 279 -1664
2021-09-15 18:21:00 GMT 55.694771 -3.816204 5,500 340 279 -1664
2021-09-15 18:20:58 GMT 55.692261 -3.814586 5,550 340 279 -1600
2021-09-15 18:20:57 GMT 55.691280 -3.813887 5,575 340 280 -1600
2021-09-15 18:20:55 GMT 55.688812 -3.812256 5,625 340 281 -1536
2021-09-15 18:20:54 GMT 55.685089 -3.809767 5,700 340 281 -1536
2021-09-15 18:20:52 GMT 55.685089 -3.809767 5,700 340 281 -1536
2021-09-15 18:20:51 GMT 55.682713 -3.808222 5,750 340 281 -1600
2021-09-15 18:20:49 GMT 55.681549 -3.807429 5,775 340 281 -1664
2021-09-15 18:20:48 GMT 55.680153 -3.806505 5,825 340 281 -1728
2021-09-15 18:20:46 GMT 55.677658 -3.804765 5,875 340 280 -1792
2021-09-15 18:20:44 GMT 55.675140 -3.803101 5,925 340 280 -1856
2021-09-15 18:20:42 GMT 55.673729 -3.802128 5,975 340 280 -1920
2021-09-15 18:20:41 GMT 55.671478 -3.800604 6,050 340 279 -1984
2021-09-15 18:20:40 GMT 55.670380 -3.799896 6,100 340 279 -2048
2021-09-15 18:20:39 GMT 55.667953 -3.798273 6,150 339 278 -2112
2021-09-15 18:20:37 GMT 55.666626 -3.797358 6,225 339 278 -2112
2021-09-15 18:20:36 GMT 55.665352 -3.796463 6,250 339 278 -2112
2021-09-15 18:20:34 GMT 55.663467 -3.795194 6,275 339 277 -2112
2021-09-15 18:20:33 GMT 55.661068 -3.793545 6,350 339 276 -2176
2021-09-15 18:20:31 GMT 55.658661 -3.791865 6,425 339 275 -2240
2021-09-15 18:20:27 GMT 55.654690 -3.789167 6,550 339 273 -2240
2021-09-15 18:20:26 GMT 55.653572 -3.788395 6,575 339 273 -2240
2021-09-15 18:20:25 GMT 55.651199 -3.786764 6,650 339 272 -2240
2021-09-15 18:20:23 GMT 55.650173 -3.785992 6,700 339 272 -2176
2021-09-15 18:20:22 GMT 55.647903 -3.784457 6,750 339 272 -2048
2021-09-15 18:20:20 GMT 55.646683 -3.783588 6,800 339 272 -1920
2021-09-15 18:20:18 GMT 55.644424 -3.781960 6,850 339 271 -1600
2021-09-15 18:20:17 GMT 55.643284 -3.781185 6,875 339 271 -1472
2021-09-15 18:20:15 GMT 55.641003 -3.779554 6,925 339 272 -1216
2021-09-15 18:20:14 GMT 55.639343 -3.778381 6,950 339 272 -1088
2021-09-15 18:20:12 GMT 55.637001 -3.776722 6,975 339 273 -768
2021-09-15 18:20:10 GMT 55.633896 -3.774553 7,000 339 275 -384
2021-09-15 18:20:09 GMT 55.633896 -3.774553 7,000 339 277 0
2021-09-15 18:20:08 GMT 55.631332 -3.772722 7,000 339 279 0
2021-09-15 18:20:06 GMT 55.630016 -3.771830 7,000 339 280 0
2021-09-15 18:20:05 GMT 55.627548 -3.770027 7,000 339 281 0
2021-09-15 18:20:02 GMT 55.625153 -3.768311 7,000 338 282 0
2021-09-15 18:20:01 GMT 55.623917 -3.767478 7,000 338 284 64
2021-09-15 18:20:00 GMT 55.622910 -3.766729 7,000 339 285 0
2021-09-15 18:19:59 GMT 55.620346 -3.764898 7,000 338 288 -64
2021-09-15 18:19:57 GMT 55.618938 -3.763933 7,000 338 289 -128
2021-09-15 18:19:55 GMT 55.616959 -3.762484 7,000 338 291 -192
2021-09-15 18:19:54 GMT 55.615307 -3.761272 7,000 338 292 -320
2021-09-15 18:19:52 GMT 55.612839 -3.759556 7,000 338 293 -448
2021-09-15 18:19:51 GMT 55.611771 -3.758783 7,025 338 296 -512
2021-09-15 18:19:49 GMT 55.609406 -3.757075 7,025 338 296 -640
2021-09-15 18:19:48 GMT 55.608124 -3.756159 7,050 338 296 -704
2021-09-15 18:19:45 GMT 55.603157 -3.752604 7,100 338 300 -1088
2021-09-15 18:19:43 GMT 55.601250 -3.751230 7,125 338 300 -1088
2021-09-15 18:19:42 GMT 55.600525 -3.750666 7,150 338 301 -1216
2021-09-15 18:19:38 GMT 55.595894 -3.747368 7,225 338 302 -1472
2021-09-15 18:19:37 GMT 55.593430 -3.745589 7,250 338 303 -1536
2021-09-15 18:19:36 GMT 55.592403 -3.744793 7,275 338 303 -1536
2021-09-15 18:19:34 GMT 55.589844 -3.742990 7,325 339 303 -1600
2021-09-15 18:19:32 GMT 55.586472 -3.740678 7,375 339 304 -1664
2021-09-15 18:19:29 GMT 55.583046 -3.738184 7,475 339 305 -1728
2021-09-15 18:19:26 GMT 55.579742 -3.735934 7,750 340 306 -1856
2021-09-15 18:19:23 GMT 55.571182 -3.730108 7,750 340 306 -1856
2021-09-15 18:19:20 GMT 55.571182 -3.730108 7,750 340 306 -2048
2021-09-15 18:19:17 GMT 55.566845 -3.727283 7,925 341 306 -2048
2021-09-15 18:19:14 GMT 55.564087 -3.725530 7,925 341 306 -2048
2021-09-15 18:19:13 GMT 55.562943 -3.724781 7,950 341 305 -2048
2021-09-15 18:19:12 GMT 55.561066 -3.723699 8,000 341 305 -2048
2021-09-15 18:19:11 GMT 55.559052 -3.722451 8,050 341 305 -2048
2021-09-15 18:19:08 GMT 55.555618 -3.720370 8,150 341 305 -2048
2021-09-15 18:19:06 GMT 55.552322 -3.718357 8,225 342 305 -1984
2021-09-15 18:19:05 GMT 55.551159 -3.717670 8,250 342 305 -1920
2021-09-15 18:19:04 GMT 55.549896 -3.716875 8,300 342 305 -1920
2021-09-15 18:19:03 GMT 55.547104 -3.715210 8,350 342 305 -1920
2021-09-15 18:18:59 GMT 55.542454 -3.712349 8,575 342 306 -1792
2021-09-15 18:18:55 GMT 55.537720 -3.709550 8,575 342 306 -1920
2021-09-15 18:18:52 GMT 55.533421 -3.707027 8,800 342 308 -1984
2021-09-15 18:18:49 GMT 55.529755 -3.704806 8,800 342 308 -1984
2021-09-15 18:18:46 GMT 55.525955 -3.702642 8,875 342 308 -2048
2021-09-15 18:18:44 GMT 55.522888 -3.700811 8,950 342 308 -2112
2021-09-15 18:18:41 GMT 55.518860 -3.698481 9,075 342 309 -2112
2021-09-15 18:18:38 GMT 55.514786 -3.696067 9,175 342 311 -1920
2021-09-15 18:18:34 GMT 55.508240 -3.692322 9,300 343 312 -1920
2021-09-15 18:18:31 GMT 55.504166 -3.689991 9,425 343 313 -1856
2021-09-15 18:18:28 GMT 55.501438 -3.688488 9,475 343 314 -1920
2021-09-15 18:18:24 GMT 55.494141 -3.684415 9,625 343 315 -1792
2021-09-15 18:18:21 GMT 55.488235 -3.681086 9,700 343 316 -1792
2021-09-15 18:18:18 GMT 55.488235 -3.681086 9,775 343 318 -1856
2021-09-15 18:18:15 GMT 55.477341 -3.674760 9,925 342 320 -1792
2021-09-15 18:18:12 GMT 55.477341 -3.674760 10,025 342 322 -1792
2021-09-15 18:18:09 GMT 55.473557 -3.672609 10,075 342 322 -1792
2021-09-15 18:18:06 GMT 55.470108 -3.670516 10,275 341 327 -1728
2021-09-15 18:18:03 GMT 55.461777 -3.665571 10,275 341 327 -1728
2021-09-15 18:18:00 GMT 55.457062 -3.662609 10,325 342 335 -2048
2021-09-15 18:17:57 GMT 55.452934 -3.660078 10,450 341 330 -1792
2021-09-15 18:17:54 GMT 55.452934 -3.660078 10,500 341 331 -1728
2021-09-15 18:17:51 GMT 55.449326 -3.657948 10,625 341 333 -2112
2021-09-15 18:17:48 GMT 55.445065 -3.655272 10,725 341 334 -2112
2021-09-15 18:17:45 GMT 55.440033 -3.652227 10,850 341 335 -1984
2021-09-15 18:17:42 GMT 55.435364 -3.649400 11,000 341 336 -1856
2021-09-15 18:17:39 GMT 55.428040 -3.644957 11,000 341 336 -1856
2021-09-15 18:17:36 GMT 55.428040 -3.644957 11,050 341 338 -1856
2021-09-15 18:17:35 GMT 55.426399 -3.643965 11,075 341 338 -1856
2021-09-15 18:17:33 GMT 55.422672 -3.641718 11,200 341 338 -1856
2021-09-15 18:17:30 GMT 55.417694 -3.638639 11,275 341 338 -1856
2021-09-15 18:17:27 GMT 55.413895 -3.636394 11,350 341 339 -1920
2021-09-15 18:17:23 GMT 55.402561 -3.629317 11,500 341 340 -1856
2021-09-15 18:17:20 GMT 55.402561 -3.629317 11,600 340 340 -1856
2021-09-15 18:17:17 GMT 55.398560 -3.626700 11,725 339 340 -1920
2021-09-15 18:17:14 GMT 55.395493 -3.624680 11,800 337 340 -2112
2021-09-15 18:17:11 GMT 55.389404 -3.620237 12,000 337 340 -2112
2021-09-15 18:17:08 GMT 55.380890 -3.613048 12,000 334 340 -2240
2021-09-15 18:17:05 GMT 55.380890 -3.613048 12,175 332 340 -2112
2021-09-15 18:17:02 GMT 55.378078 -3.610424 12,250 331 340 -2048
2021-09-15 18:16:59 GMT 55.372536 -3.604931 12,325 331 339 -2048
2021-09-15 18:16:56 GMT 55.368439 -3.600850 12,450 331 340 -2240
2021-09-15 18:16:53 GMT 55.365089 -3.597440 12,575 331 336 -2880
2021-09-15 18:16:50 GMT 55.361710 -3.594064 12,575 331 336 -2880
2021-09-15 18:16:47 GMT 55.357967 -3.590282 12,700 331 341 -2240
2021-09-15 18:16:43 GMT 55.350677 -3.582997 13,025 330 340 -2304
2021-09-15 18:16:40 GMT 55.347862 -3.580128 13,000 331 340 -2304
2021-09-15 18:16:37 GMT 55.344234 -3.576466 13,100 331 340 -2304
2021-09-15 18:16:34 GMT 55.334225 -3.566312 13,275 331 340 -2624
2021-09-15 18:16:31 GMT 55.334225 -3.566312 13,400 330 339 -2944
2021-09-15 18:16:28 GMT 55.331059 -3.563149 13,900 331 338 -3072
2021-09-15 18:16:25 GMT 55.325500 -3.557470 13,725 331 336 -3008
2021-09-15 18:16:22 GMT 55.322479 -3.554481 13,900 331 336 -2752
2021-09-15 18:16:19 GMT 55.315613 -3.547534 14,025 331 336 -2368
2021-09-15 18:16:14 GMT 55.312344 -3.544256 14,100 331 336 -1664
2021-09-15 18:16:11 GMT 55.308155 -3.540011 14,200 331 338 -1472
2021-09-15 18:16:08 GMT 55.300007 -3.531855 14,325 331 339 -1344
2021-09-15 18:16:05 GMT 55.300007 -3.531855 14,450 331 343 -1408
2021-09-15 18:16:02 GMT 55.295959 -3.527777 14,450 331 343 -1536
2021-09-15 18:15:59 GMT 55.291210 -3.523032 14,525 331 344 -1728
2021-09-15 18:15:56 GMT 55.288284 -3.520068 14,550 331 344 -1728
2021-09-15 18:15:53 GMT 55.283386 -3.515221 16,375 331 354 -1856
2021-09-15 18:15:50 GMT 55.278809 -3.510617 14,725 331 345 -1920
2021-09-15 18:15:46 GMT 55.274033 -3.505804 14,850 331 345 -1920
2021-09-15 18:15:44 GMT 55.271347 -3.503104 15,000 331 345 -1920
2021-09-15 18:15:41 GMT 55.266769 -3.498563 15,025 331 347 -1920
2021-09-15 18:15:39 GMT 55.265121 -3.496884 15,125 331 347 -1856
2021-09-15 18:15:36 GMT 55.260487 -3.492237 15,250 331 347 -1920
2021-09-15 18:15:34 GMT 55.257156 -3.488886 15,300 331 348 -1920
2021-09-15 18:15:31 GMT 55.253082 -3.484766 15,375 331 348 -1920
2021-09-15 18:15:29 GMT 55.245960 -3.477672 15,725 331 349 -1792
2021-09-15 18:15:26 GMT 55.245960 -3.477672 15,500 331 348 -1984
2021-09-15 18:15:24 GMT 55.243607 -3.475315 15,675 331 349 -1920
2021-09-15 18:15:21 GMT 55.238605 -3.470265 15,675 331 349 -1984
2021-09-15 18:15:19 GMT 55.236923 -3.468610 15,775 331 350 -1600
2021-09-15 18:15:16 GMT 55.231808 -3.463440 15,850 331 350 -1536
2021-09-15 18:15:14 GMT 55.228043 -3.459643 15,900 331 351 -1728
2021-09-15 18:15:11 GMT 55.224220 -3.455866 15,975 331 352 -1792
2021-09-15 18:15:06 GMT 55.217422 -3.449061 16,125 331 353 -1856
2021-09-15 18:15:04 GMT 55.213886 -3.445546 16,225 331 353 -1792
2021-09-15 18:15:01 GMT 55.209976 -3.441634 16,275 331 354 -1792
2021-09-15 18:14:59 GMT 55.208588 -3.440256 16,375 331 354 -1856
2021-09-15 18:14:56 GMT 55.203506 -3.435166 16,425 331 355 -1856
2021-09-15 18:14:52 GMT 55.197220 -3.428900 16,575 331 355 -1920
2021-09-15 18:14:49 GMT 55.193684 -3.425404 16,650 331 356 -1856
2021-09-15 18:14:45 GMT 55.187668 -3.419495 16,775 331 356 -1856
2021-09-15 18:14:42 GMT 55.179977 -3.411820 16,875 331 357 -1856
2021-09-15 18:14:39 GMT 55.179977 -3.411820 16,950 331 357 -1856
2021-09-15 18:14:37 GMT 55.177483 -3.409341 17,075 331 358 -1856
2021-09-15 18:14:35 GMT 55.173798 -3.405681 17,050 331 359 -1856
2021-09-15 18:14:33 GMT 55.170776 -3.402692 17,225 331 359 -1920
2021-09-15 18:14:30 GMT 55.166382 -3.398249 17,250 331 360 -1920
2021-09-15 18:14:28 GMT 55.160110 -3.392029 17,375 331 360 -1920
2021-09-15 18:14:25 GMT 55.160110 -3.392029 17,375 331 360 -1920
2021-09-15 18:14:23 GMT 55.156673 -3.388616 17,450 331 361 -1920
2021-09-15 18:14:20 GMT 55.151917 -3.383870 17,550 331 361 -1920
2021-09-15 18:14:18 GMT 55.148296 -3.380210 17,650 331 362 -1920
2021-09-15 18:14:15 GMT 55.144382 -3.376298 17,700 331 362 -1984
2021-09-15 18:14:13 GMT 55.137077 -3.369057 17,825 331 363 -1920
2021-09-15 18:14:10 GMT 55.137077 -3.369057 17,975 331 365 -1920
2021-09-15 18:14:07 GMT 55.129532 -3.361493 18,050 331 365 -1920
2021-09-15 18:14:05 GMT 55.129532 -3.361493 18,050 331 365 -1920
2021-09-15 18:14:03 GMT 55.127209 -3.359236 18,150 331 365 -1920
2021-09-15 18:14:00 GMT 55.122757 -3.354788 18,200 331 365 -1920
2021-09-15 18:13:57 GMT 55.118271 -3.350331 18,300 331 367 -1920
2021-09-15 18:13:55 GMT 55.115067 -3.347195 18,375 331 368 -1920
2021-09-15 18:13:53 GMT 55.110493 -3.342590 18,475 331 368 -1984
2021-09-15 18:13:50 GMT 55.107880 -3.340005 18,600 331 368 -1920
2021-09-15 18:13:48 GMT 55.101837 -3.334027 18,675 331 369 -1920
2021-09-15 18:13:46 GMT 55.101837 -3.334027 18,650 331 369 -1920
2021-09-15 18:13:44 GMT 55.099602 -3.331770 18,725 331 370 -1920
2021-09-15 18:13:42 GMT 55.096157 -3.328358 18,850 331 371 -1920
2021-09-15 18:13:39 GMT 55.092316 -3.324576 18,850 331 370 -1920
2021-09-15 18:13:37 GMT 55.087265 -3.319536 18,925 331 371 -1920
2021-09-15 18:13:34 GMT 55.084797 -3.317122 19,025 331 371 -1920
2021-09-15 18:13:32 GMT 55.081028 -3.313377 19,225 331 373 -1920
2021-09-15 18:13:29 GMT 55.077164 -3.309548 19,175 331 373 -1920
2021-09-15 18:13:27 GMT 55.074089 -3.306469 19,250 331 373 -1920
2021-09-15 18:13:25 GMT 55.070892 -3.303330 19,325 331 373 -1920
2021-09-15 18:13:23 GMT 55.066875 -3.299311 19,800 331 375 -2048
2021-09-15 18:13:20 GMT 55.060089 -3.292667 19,525 331 374 -2048
2021-09-15 18:13:16 GMT 55.057938 -3.290567 19,600 331 376 -2048
2021-09-15 18:13:14 GMT 55.050907 -3.283580 19,700 331 376 -2048
2021-09-15 18:13:12 GMT 55.050907 -3.283580 19,775 331 376 -2048
2021-09-15 18:13:09 GMT 55.046486 -3.279252 19,850 331 377 -2112
2021-09-15 18:13:07 GMT 55.043552 -3.276256 19,925 331 377 -2048
2021-09-15 18:13:04 GMT 55.039032 -3.271825 20,050 331 378 -1984
2021-09-15 18:13:02 GMT 55.035873 -3.268675 20,100 331 378 -1984
2021-09-15 18:12:59 GMT 55.031525 -3.264394 20,200 331 378 -2048
2021-09-15 18:12:56 GMT 55.023880 -3.256881 20,375 331 379 -1984
2021-09-15 18:12:54 GMT 55.023880 -3.256881 20,375 331 379 -1920
2021-09-15 18:12:52 GMT 55.020649 -3.253618 20,475 331 380 -1856
2021-09-15 18:12:49 GMT 55.015823 -3.248883 20,500 331 380 -1856
2021-09-15 18:12:47 GMT 55.010330 -3.243471 20,700 331 382 -1920
2021-09-15 18:12:45 GMT 55.010330 -3.243471 20,700 331 382 -1920
2021-09-15 18:12:43 GMT 55.002121 -3.235390 20,800 331 394 -1984
2021-09-15 18:12:40 GMT 54.999561 -3.232810 20,875 331 383 -1920
2021-09-15 18:12:35 GMT 54.994160 -3.227400 20,975 331 384 -1920
2021-09-15 18:12:33 GMT 54.991692 -3.225070 21,100 331 385 -1984
2021-09-15 18:12:30 GMT 54.986481 -3.219883 21,150 331 385 -1920
2021-09-15 18:12:28 GMT 54.983593 -3.216997 21,200 331 386 -1984
2021-09-15 18:12:26 GMT 54.981033 -3.214551 21,325 331 386 -1984
2021-09-15 18:12:24 GMT 54.977402 -3.210921 21,325 331 386 -1984
2021-09-15 18:12:22 GMT 54.969315 -3.202999 21,450 331 387 -1920
2021-09-15 18:12:19 GMT 54.969315 -3.202999 21,500 331 388 -1920
2021-09-15 18:12:17 GMT 54.966835 -3.200600 21,550 331 388 -1920
2021-09-15 18:12:14 GMT 54.962128 -3.195971 21,650 331 389 -1920
2021-09-15 18:12:12 GMT 54.959152 -3.193026 21,725 331 389 -1920
2021-09-15 18:12:09 GMT 54.954357 -3.188282 21,800 331 389 -1920
2021-09-15 18:12:07 GMT 54.951473 -3.185453 21,875 331 390 -1984
2021-09-15 18:12:04 GMT 54.946815 -3.180875 22,025 331 390 -1984
2021-09-15 18:12:02 GMT 54.938438 -3.172635 22,075 331 391 -1984
2021-09-15 18:11:59 GMT 54.938438 -3.172635 22,150 331 391 -1984
2021-09-15 18:11:57 GMT 54.931549 -3.165810 22,250 331 392 -1984
2021-09-15 18:11:55 GMT 54.931549 -3.165810 22,250 331 392 -1984
2021-09-15 18:11:53 GMT 54.929123 -3.163497 22,325 331 392 -1984
2021-09-15 18:11:50 GMT 54.924145 -3.158569 22,450 331 394 -2048
2021-09-15 18:11:48 GMT 54.920979 -3.155490 22,500 331 394 -1984
2021-09-15 18:11:46 GMT 54.915665 -3.150249 22,600 331 394 -1984
2021-09-15 18:11:44 GMT 54.915665 -3.150249 22,625 331 394 -1984
2021-09-15 18:11:42 GMT 54.911995 -3.146667 22,725 331 394 -1984
2021-09-15 18:11:39 GMT 54.906693 -3.141444 22,800 331 396 -1984
2021-09-15 18:11:37 GMT 54.904404 -3.139262 22,875 331 396 -1984
2021-09-15 18:11:35 GMT 54.900696 -3.135627 22,925 331 396 -1984
2021-09-15 18:11:33 GMT 54.897354 -3.132315 23,025 331 397 -1984
2021-09-15 18:11:30 GMT 54.891907 -3.126984 23,125 331 397 -1984
2021-09-15 18:11:27 GMT 54.887924 -3.123106 23,225 331 398 -1984
2021-09-15 18:11:24 GMT 54.883411 -3.118702 23,275 331 399 -1984
2021-09-15 18:11:22 GMT 54.879501 -3.114866 23,575 331 400 -1920
2021-09-15 18:11:19 GMT 54.876011 -3.111461 23,425 331 399 -1984
2021-09-15 18:11:17 GMT 54.871353 -3.106884 23,525 331 400 -1920
2021-09-15 18:11:14 GMT 54.867493 -3.103138 23,625 331 400 -2048
2021-09-15 18:11:12 GMT 54.864166 -3.099841 23,675 331 400 -1984
2021-09-15 18:11:09 GMT 54.860088 -3.095897 23,775 331 401 -1984
2021-09-15 18:11:07 GMT 54.856522 -3.092409 23,875 331 402 -1984
2021-09-15 18:11:05 GMT 54.852688 -3.088573 23,925 331 402 -1984
2021-09-15 18:11:03 GMT 54.849289 -3.085244 24,025 331 402 -2048
2021-09-15 18:11:01 GMT 54.846218 -3.082248 24,050 331 402 -1984
2021-09-15 18:10:58 GMT 54.836380 -3.072617 24,550 333 405 -1920
2021-09-15 18:10:55 GMT 54.832947 -3.069225 24,300 331 403 -1984
2021-09-15 18:10:53 GMT 54.832947 -3.069225 24,325 331 404 -1984
2021-09-15 18:10:48 GMT 54.825035 -3.061690 24,475 332 405 -1920
2021-09-15 18:10:46 GMT 54.822418 -3.059208 24,525 333 405 -1920
2021-09-15 18:10:44 GMT 54.814865 -3.052422 24,650 333 406 -1984
2021-09-15 18:10:42 GMT 54.814865 -3.052422 24,775 334 407 -1984
2021-09-15 18:10:39 GMT 54.810654 -3.048706 24,775 334 407 -1984
2021-09-15 18:10:37 GMT 54.805618 -3.044344 24,950 334 408 -2048
2021-09-15 18:10:34 GMT 54.801270 -3.040547 24,950 334 409 -2176
2021-09-15 18:10:32 GMT 54.798294 -3.037962 25,025 334 409 -2240
2021-09-15 18:10:29 GMT 54.793240 -3.033475 25,125 334 410 -2304
2021-09-15 18:10:27 GMT 54.788315 -3.029238 25,250 334 410 -2304
2021-09-15 18:10:24 GMT 54.784286 -3.025683 25,350 334 410 -2496
2021-09-15 18:10:22 GMT 54.780075 -3.021967 25,575 334 410 -2752
2021-09-15 18:10:18 GMT 54.771790 -3.014778 25,675 334 399 -3200
2021-09-15 18:10:16 GMT 54.771790 -3.014778 25,675 334 408 -2880
2021-09-15 18:10:14 GMT 54.768539 -3.011950 25,750 334 408 -3008
2021-09-15 18:10:12 GMT 54.763123 -3.007258 25,875 334 408 -3072
2021-09-15 18:10:09 GMT 54.759724 -3.004261 26,050 334 407 -3328
2021-09-15 18:10:07 GMT 54.756512 -3.001432 26,125 334 406 -3392
2021-09-15 18:10:04 GMT 54.750458 -2.996198 26,375 334 405 -3584
2021-09-15 18:10:02 GMT 54.747852 -2.993941 26,425 334 404 -3840
2021-09-15 18:09:59 GMT 54.743408 -2.990058 26,625 334 401 -4032
2021-09-15 18:09:57 GMT 54.739521 -2.986700 26,750 334 401 -3904
2021-09-15 18:09:54 GMT 54.734261 -2.982122 26,975 334 399 -3264
2021-09-15 18:09:51 GMT 54.729126 -2.977618 27,125 334 398 -2752
2021-09-15 18:09:48 GMT 54.724731 -2.973821 27,300 334 398 -2304
2021-09-15 18:09:46 GMT 54.721619 -2.971156 27,300 334 399 -1920
2021-09-15 18:09:44 GMT 54.718384 -2.968306 27,375 334 399 -1856
2021-09-15 18:09:42 GMT 54.714844 -2.965258 27,425 334 399 -1920
2021-09-15 18:09:39 GMT 54.703629 -2.955565 27,575 334 400 -2048
2021-09-15 18:09:36 GMT 54.703629 -2.955565 27,650 334 400 -2112
2021-09-15 18:09:33 GMT 54.700371 -2.952742 27,725 334 401 -2176
2021-09-15 18:09:31 GMT 54.694736 -2.947832 27,850 334 401 -2112
2021-09-15 18:09:28 GMT 54.691383 -2.944919 27,875 334 401 -2112
2021-09-15 18:09:26 GMT 54.687790 -2.941832 28,100 334 402 -2048
2021-09-15 18:09:23 GMT 54.680397 -2.935347 28,150 334 402 -1920
2021-09-15 18:09:19 GMT 54.676765 -2.932184 28,200 334 402 -1856
2021-09-15 18:09:17 GMT 54.672485 -2.928522 28,250 334 402 -1792
2021-09-15 18:09:14 GMT 54.668381 -2.924948 28,350 334 403 -1536
2021-09-15 18:09:11 GMT 54.660290 -2.917952 28,475 334 404 -1408
2021-09-15 18:09:09 GMT 54.660290 -2.917952 28,475 334 404 -1408
2021-09-15 18:09:07 GMT 54.656799 -2.914931 28,525 334 405 -1280
2021-09-15 18:09:04 GMT 54.652771 -2.911377 29,050 334 406 -896
2021-09-15 18:09:02 GMT 54.647488 -2.906799 28,675 334 406 -1024
2021-09-15 18:08:59 GMT 54.643250 -2.903137 28,675 334 406 -960
2021-09-15 18:08:57 GMT 54.637848 -2.898560 28,750 334 406 -960
2021-09-15 18:08:54 GMT 54.634266 -2.895397 28,800 334 406 -896
2021-09-15 18:08:51 GMT 54.629097 -2.890986 28,825 334 406 -896
2021-09-15 18:08:48 GMT 54.621231 -2.884153 28,875 334 406 -896
2021-09-15 18:08:46 GMT 54.621231 -2.884153 28,900 334 406 -896
2021-09-15 18:08:44 GMT 54.614620 -2.878418 28,950 334 406 -896
2021-09-15 18:08:42 GMT 54.614620 -2.878418 28,950 334 406 -896
2021-09-15 18:08:38 GMT 54.608150 -2.872842 29,000 334 406 -896
2021-09-15 18:08:36 GMT 54.603912 -2.869263 29,050 334 406 -960
2021-09-15 18:08:33 GMT 54.596371 -2.862688 29,100 334 406 -960
2021-09-15 18:08:31 GMT 54.596371 -2.862688 29,125 334 406 -960
2021-09-15 18:08:29 GMT 54.592300 -2.859192 29,150 334 408 -960
2021-09-15 18:08:26 GMT 54.587128 -2.854749 29,200 334 409 -960
2021-09-15 18:08:23 GMT 54.582962 -2.851194 29,250 334 409 -960
2021-09-15 18:08:21 GMT 54.580402 -2.848955 29,275 334 409 -960
2021-09-15 18:08:19 GMT 54.575958 -2.845136 29,325 334 410 -960
2021-09-15 18:08:17 GMT 54.571747 -2.841547 29,375 334 411 -960
2021-09-15 18:08:14 GMT 54.567184 -2.837552 29,400 334 412 -960
2021-09-15 18:08:12 GMT 54.563828 -2.834715 29,400 334 412 -960
2021-09-15 18:08:09 GMT 54.558662 -2.830228 29,500 334 413 -960
2021-09-15 18:08:07 GMT 54.555725 -2.827768 29,475 334 413 -960
2021-09-15 18:08:05 GMT 54.551682 -2.824235 29,650 334 419 -960
2021-09-15 18:08:02 GMT 54.546890 -2.820093 29,575 334 415 -960
2021-09-15 18:07:59 GMT 54.537205 -2.811834 29,625 334 420 -960
2021-09-15 18:07:56 GMT 54.537205 -2.811834 29,650 334 419 -960
2021-09-15 18:07:53 GMT 54.530914 -2.806361 29,725 334 421 -1024
2021-09-15 18:07:51 GMT 54.529011 -2.804760 29,725 334 421 -1024
2021-09-15 18:07:49 GMT 54.524448 -2.800848 29,775 334 422 -1024
2021-09-15 18:07:46 GMT 54.520203 -2.797151 29,800 334 424 -960
2021-09-15 18:07:44 GMT 54.516266 -2.793839 29,825 334 424 -960
2021-09-15 18:07:42 GMT 54.508015 -2.786699 29,875 334 427 -896
2021-09-15 18:07:40 GMT 54.508015 -2.786699 29,925 334 427 -832
2021-09-15 18:07:37 GMT 54.503265 -2.782621 29,950 334 429 -576
2021-09-15 18:07:33 GMT 54.497086 -2.777360 29,975 334 429 -384
2021-09-15 18:07:31 GMT 54.491768 -2.772799 30,000 334 429 0
2021-09-15 18:07:28 GMT 54.487625 -2.769221 30,000 334 429 0
2021-09-15 18:07:25 GMT 54.481064 -2.763561 30,000 334 429 0
2021-09-15 18:07:22 GMT 54.476360 -2.759566 30,000 334 429 0
2021-09-15 18:07:19 GMT 54.467281 -2.751742 30,000 334 429 0
2021-09-15 18:07:16 GMT 54.467281 -2.751742 30,000 334 429 0
2021-09-15 18:07:14 GMT 54.462479 -2.747632 30,000 334 428 64
2021-09-15 18:07:12 GMT 54.453037 -2.739591 30,000 334 428 0
2021-09-15 18:07:09 GMT 54.453037 -2.739591 30,000 334 428 0
2021-09-15 18:07:06 GMT 54.448837 -2.736000 30,000 334 428 -64
2021-09-15 18:07:03 GMT 54.443573 -2.731476 30,000 334 428 -64
2021-09-15 18:07:01 GMT 54.438080 -2.726790 30,000 334 428 -64
2021-09-15 18:06:58 GMT 54.434372 -2.723640 30,000 334 428 -64
2021-09-15 18:06:56 GMT 54.430553 -2.720365 30,000 334 428 -64
2021-09-15 18:06:54 GMT 54.425663 -2.716203 30,000 334 428 -64
2021-09-15 18:06:51 GMT 54.420547 -2.711765 30,000 334 428 0
2021-09-15 18:06:48 GMT 54.416428 -2.708291 30,000 334 427 0
2021-09-15 18:06:46 GMT 54.413406 -2.705706 30,000 334 427 0
2021-09-15 18:06:44 GMT 54.408813 -2.701804 30,000 334 427 0
2021-09-15 18:06:41 GMT 54.405369 -2.698808 30,000 334 427 0
2021-09-15 18:06:39 GMT 54.400269 -2.694478 30,000 334 428 0
2021-09-15 18:06:36 GMT 54.394958 -2.689954 30,000 334 428 0
2021-09-15 18:06:33 GMT 54.386490 -2.682684 30,000 334 428 0
2021-09-15 18:06:31 GMT 54.386490 -2.682684 30,000 334 428 0
2021-09-15 18:06:28 GMT 54.381393 -2.678334 30,000 334 428 -64
2021-09-15 18:06:26 GMT 54.376694 -2.674363 30,025 334 428 0
2021-09-15 18:06:23 GMT 54.372360 -2.670676 30,025 334 428 0
2021-09-15 18:06:21 GMT 54.368034 -2.667014 30,025 334 428 0
2021-09-15 18:06:18 GMT 54.363190 -2.662853 30,025 334 428 0
2021-09-15 18:06:15 GMT 54.357651 -2.658109 30,025 334 428 0
2021-09-15 18:06:11 GMT 54.350784 -2.652310 30,000 334 428 0
2021-09-15 18:06:08 GMT 54.346012 -2.648204 30,000 334 428 0
2021-09-15 18:06:06 GMT 54.342224 -2.644958 30,000 334 428 0
2021-09-15 18:06:03 GMT 54.337772 -2.641130 30,000 334 428 0
2021-09-15 18:06:01 GMT 54.332932 -2.637042 30,025 334 428 0
2021-09-15 18:05:58 GMT 54.327713 -2.632599 30,025 334 428 0
2021-09-15 18:05:54 GMT 54.320572 -2.626540 30,025 334 428 0
2021-09-15 18:05:51 GMT 54.314301 -2.621209 30,025 334 428 0
2021-09-15 18:05:48 GMT 54.311600 -2.618947 30,025 334 428 0
2021-09-15 18:05:46 GMT 54.302765 -2.611417 30,000 334 428 0
2021-09-15 18:05:44 GMT 54.302765 -2.611417 30,000 334 428 0
2021-09-15 18:05:42 GMT 54.300064 -2.609091 30,000 334 428 0
2021-09-15 18:05:40 GMT 54.294571 -2.604487 30,025 334 428 0
2021-09-15 18:05:37 GMT 54.291687 -2.602012 30,000 334 428 0
2021-09-15 18:05:35 GMT 54.287868 -2.598766 30,000 334 428 0
2021-09-15 18:05:33 GMT 54.282188 -2.593939 30,000 334 428 0
2021-09-15 18:05:30 GMT 54.273766 -2.586796 30,000 334 428 0
2021-09-15 18:05:27 GMT 54.273766 -2.586796 30,000 334 428 0
2021-09-15 18:05:25 GMT 54.264816 -2.579197 30,000 334 428 0
2021-09-15 18:05:23 GMT 54.264816 -2.579197 30,000 334 428 0
2021-09-15 18:05:20 GMT 54.258774 -2.574097 30,000 334 428 0
2021-09-15 18:05:17 GMT 54.251606 -2.567973 30,000 334 428 0
2021-09-15 18:05:15 GMT 54.251606 -2.567973 30,000 334 428 0
2021-09-15 18:05:13 GMT 54.247147 -2.564209 30,000 334 428 0
2021-09-15 18:05:10 GMT 54.238152 -2.556664 30,000 334 428 0
2021-09-15 18:05:07 GMT 54.238152 -2.556664 30,000 334 428 64
2021-09-15 18:05:05 GMT 54.231075 -2.550686 30,000 334 428 64
2021-09-15 18:05:03 GMT 54.231075 -2.550686 30,000 334 428 64
2021-09-15 18:05:01 GMT 54.226181 -2.546552 30,000 334 428 64
2021-09-15 18:04:58 GMT 54.221718 -2.542769 30,000 334 428 0
2021-09-15 18:04:55 GMT 54.216522 -2.538313 30,000 334 428 0
2021-09-15 18:04:53 GMT 54.211121 -2.533761 30,000 334 428 0
2021-09-15 18:04:50 GMT 54.207241 -2.530571 30,000 334 428 0
2021-09-15 18:04:47 GMT 54.202332 -2.526385 30,000 334 428 0
2021-09-15 18:04:45 GMT 54.198669 -2.523324 30,000 334 428 0
2021-09-15 18:04:43 GMT 54.195053 -2.520264 30,000 334 428 0
2021-09-15 18:04:40 GMT 54.189194 -2.515320 30,000 334 428 0
2021-09-15 18:04:37 GMT 54.184757 -2.511588 30,000 334 428 0
2021-09-15 18:04:35 GMT 54.180542 -2.508022 30,000 334 428 0
2021-09-15 18:04:32 GMT 54.176750 -2.504802 30,000 334 427 0
2021-09-15 18:04:30 GMT 54.166855 -2.496486 30,000 334 428 0
2021-09-15 18:04:27 GMT 54.166855 -2.496486 30,000 334 427 0
2021-09-15 18:04:25 GMT 54.163342 -2.493573 30,000 334 427 0
2021-09-15 18:04:23 GMT 54.159992 -2.490665 30,000 334 427 0
2021-09-15 18:04:21 GMT 54.155663 -2.487111 30,000 334 427 0
2021-09-15 18:04:19 GMT 54.151283 -2.483395 30,000 334 427 0
2021-09-15 18:04:16 GMT 54.147537 -2.480242 30,000 334 427 0
2021-09-15 18:04:14 GMT 54.144955 -2.478063 30,000 334 427 0
2021-09-15 18:04:12 GMT 54.139664 -2.473572 30,000 334 427 0
2021-09-15 18:04:09 GMT 54.133640 -2.468531 30,000 334 427 0
2021-09-15 18:04:06 GMT 54.130337 -2.465784 30,000 334 427 0
2021-09-15 18:04:03 GMT 54.124557 -2.460938 30,000 334 427 0
2021-09-15 18:04:01 GMT 54.115173 -2.453012 30,000 334 427 0
2021-09-15 18:03:58 GMT 54.115173 -2.453012 30,000 334 427 0
2021-09-15 18:03:56 GMT 54.106476 -2.445714 30,000 334 427 0
2021-09-15 18:03:53 GMT 54.106476 -2.445714 30,000 334 427 0
2021-09-15 18:03:51 GMT 54.102871 -2.442681 30,000 334 427 0
2021-09-15 18:03:49 GMT 54.094444 -2.435653 30,000 334 427 0
2021-09-15 18:03:46 GMT 54.094444 -2.435653 30,000 334 427 0
2021-09-15 18:03:44 GMT 54.087135 -2.429513 30,000 334 427 0
2021-09-15 18:03:42 GMT 54.087135 -2.429513 30,000 334 427 0
2021-09-15 18:03:39 GMT 54.076630 -2.420680 30,000 334 427 0
2021-09-15 18:03:36 GMT 54.076630 -2.420680 30,000 334 427 0
2021-09-15 18:03:33 GMT 54.071262 -2.416184 30,000 334 427 0
2021-09-15 18:03:30 GMT 54.066605 -2.412205 30,000 334 427 0
2021-09-15 18:03:28 GMT 54.062302 -2.408595 30,000 334 427 0
2021-09-15 18:03:26 GMT 54.058868 -2.405770 30,000 334 427 0
2021-09-15 18:03:24 GMT 54.056225 -2.403582 30,000 334 427 0
2021-09-15 18:03:22 GMT 54.051571 -2.399624 30,000 334 427 0
2021-09-15 18:03:19 GMT 54.041470 -2.391142 30,000 334 427 0
2021-09-15 18:03:16 GMT 54.041470 -2.391142 30,000 334 427 -64
2021-09-15 18:03:14 GMT 54.038681 -2.388820 30,000 334 427 -64
2021-09-15 18:03:12 GMT 54.033928 -2.384841 30,000 334 427 -64
2021-09-15 18:03:10 GMT 54.031181 -2.382579 30,000 334 427 -64
2021-09-15 18:03:07 GMT 54.025223 -2.377571 30,000 334 426 0
2021-09-15 18:03:05 GMT 54.022381 -2.375147 30,000 334 426 0
2021-09-15 18:03:03 GMT 54.017868 -2.371431 30,000 334 426 0
2021-09-15 18:03:00 GMT 54.013412 -2.367711 30,000 334 426 0
2021-09-15 18:02:58 GMT 54.008972 -2.364022 30,000 334 426 0
2021-09-15 18:02:56 GMT 54.006088 -2.361590 30,000 334 426 0
2021-09-15 18:02:53 GMT 54.000084 -2.356567 30,025 334 426 0
2021-09-15 18:02:50 GMT 53.990387 -2.348563 30,025 334 426 0
2021-09-15 18:02:45 GMT 53.987000 -2.345738 30,000 334 426 -64
2021-09-15 18:02:42 GMT 53.981697 -2.341300 30,025 334 426 0
2021-09-15 18:02:39 GMT 53.975365 -2.335968 30,000 334 426 0
2021-09-15 18:02:36 GMT 53.970196 -2.331687 30,000 334 426 64
2021-09-15 18:02:34 GMT 53.967224 -2.329180 30,000 334 426 64
2021-09-15 18:02:32 GMT 53.964424 -2.326920 30,000 334 426 0
2021-09-15 18:02:30 GMT 53.956467 -2.320234 30,000 334 426 0
2021-09-15 18:02:28 GMT 53.956467 -2.320234 30,000 334 426 0
2021-09-15 18:02:25 GMT 53.951248 -2.315853 30,000 334 426 0
2021-09-15 18:02:22 GMT 53.946877 -2.312218 30,025 334 426 0
2021-09-15 18:02:20 GMT 53.937145 -2.304140 30,025 334 426 0
2021-09-15 18:02:17 GMT 53.931561 -2.299455 30,025 334 426 0
2021-09-15 18:02:14 GMT 53.931561 -2.299455 30,025 334 426 0
2021-09-15 18:02:12 GMT 53.929371 -2.297597 30,025 334 426 0
2021-09-15 18:02:10 GMT 53.924763 -2.293719 30,025 334 426 0
2021-09-15 18:02:08 GMT 53.919846 -2.289629 30,025 334 426 0
2021-09-15 18:02:05 GMT 53.914986 -2.285641 30,025 334 426 0
2021-09-15 18:02:02 GMT 53.906616 -2.278643 30,025 334 426 0
2021-09-15 18:02:00 GMT 53.906616 -2.278643 30,025 334 426 0
2021-09-15 18:01:58 GMT 53.901535 -2.274484 30,000 334 426 0
2021-09-15 18:01:55 GMT 53.897552 -2.271109 30,025 334 426 0
2021-09-15 18:01:52 GMT 53.888809 -2.263890 30,000 334 426 0
2021-09-15 18:01:50 GMT 53.888809 -2.263890 30,025 334 426 0
2021-09-15 18:01:47 GMT 53.882446 -2.258554 30,025 334 426 0
2021-09-15 18:01:44 GMT 53.875881 -2.253086 30,025 334 426 0
2021-09-15 18:01:42 GMT 53.871506 -2.249529 30,000 334 426 0
2021-09-15 18:01:40 GMT 53.871506 -2.249529 30,025 334 426 0
2021-09-15 18:01:38 GMT 53.868530 -2.247018 30,000 334 426 0
2021-09-15 18:01:35 GMT 53.856903 -2.237444 30,000 334 426 0
2021-09-15 18:01:32 GMT 53.856903 -2.237444 30,000 334 426 0
2021-09-15 18:01:29 GMT 53.853256 -2.234344 30,000 334 426 64
2021-09-15 18:01:27 GMT 53.847904 -2.229982 30,000 334 426 0
2021-09-15 18:01:24 GMT 53.839062 -2.222631 30,000 334 426 64
2021-09-15 18:01:22 GMT 53.839062 -2.222631 30,000 334 426 64
2021-09-15 18:01:19 GMT 53.835388 -2.219631 30,000 334 426 64
2021-09-15 18:01:17 GMT 53.825653 -2.211564 30,000 334 426 64
2021-09-15 18:01:14 GMT 53.825653 -2.211564 30,000 334 426 64
2021-09-15 18:01:12 GMT 53.822117 -2.208656 30,000 334 426 64
2021-09-15 18:01:09 GMT 53.816299 -2.203857 30,000 334 426 64
2021-09-15 18:01:06 GMT 53.812290 -2.200578 30,000 334 426 64
2021-09-15 18:01:04 GMT 53.808754 -2.197670 30,000 334 426 64
2021-09-15 18:01:02 GMT 53.799866 -2.190281 29,975 334 426 0
2021-09-15 18:00:59 GMT 53.799866 -2.190281 29,975 334 426 0
2021-09-15 18:00:57 GMT 53.794415 -2.185795 29,975 334 426 64
2021-09-15 18:00:54 GMT 53.790756 -2.182748 29,975 334 426 0
2021-09-15 18:00:52 GMT 53.786774 -2.179452 29,975 334 426 0
2021-09-15 18:00:49 GMT 53.782730 -2.176101 29,975 334 426 0
2021-09-15 18:00:47 GMT 53.777298 -2.171683 29,975 334 426 0
2021-09-15 18:00:44 GMT 53.772858 -2.167995 29,975 334 426 -64
2021-09-15 18:00:42 GMT 53.768372 -2.164307 29,975 334 426 0
2021-09-15 18:00:39 GMT 53.764435 -2.160995 30,000 334 426 0
2021-09-15 18:00:37 GMT 53.760635 -2.157950 30,000 334 426 0
2021-09-15 18:00:35 GMT 53.750885 -2.149867 30,000 334 426 -64
2021-09-15 18:00:32 GMT 53.746628 -2.146336 30,000 334 425 0
2021-09-15 18:00:29 GMT 53.746628 -2.146336 30,000 334 426 -64
2021-09-15 18:00:27 GMT 53.737244 -2.138646 30,000 334 426 -64
2021-09-15 18:00:24 GMT 53.731430 -2.133852 30,000 334 425 -64
2021-09-15 18:00:21 GMT 53.731430 -2.133852 30,000 334 425 -64
2021-09-15 18:00:18 GMT 53.721542 -2.125698 30,000 334 425 64
2021-09-15 18:00:15 GMT 53.718979 -2.123579 30,000 334 425 0
2021-09-15 18:00:13 GMT 53.714161 -2.119634 30,000 334 425 64
2021-09-15 18:00:11 GMT 53.714161 -2.119634 30,000 334 425 64
2021-09-15 18:00:08 GMT 53.709778 -2.115967 30,000 334 425 64
2021-09-15 18:00:05 GMT 53.703369 -2.110709 30,000 335 424 0
2021-09-15 18:00:02 GMT 53.698059 -2.106315 30,000 335 424 0
2021-09-15 17:59:59 GMT 53.689728 -2.099487 30,000 335 425 0
2021-09-15 17:59:57 GMT 53.689728 -2.099487 30,000 335 425 0
2021-09-15 17:59:54 GMT 53.684086 -2.094915 30,000 335 425 0
2021-09-15 17:59:51 GMT 53.679478 -2.091118 30,000 335 425 -64
2021-09-15 17:59:48 GMT 53.673565 -2.086271 30,000 335 425 0
2021-09-15 17:59:45 GMT 53.668121 -2.081828 30,000 335 425 0
2021-09-15 17:59:41 GMT 53.662170 -2.076965 30,000 334 425 0
2021-09-15 17:59:39 GMT 53.658298 -2.073750 30,000 335 424 0
2021-09-15 17:59:37 GMT 53.647869 -2.065187 30,000 334 425 0
2021-09-15 17:59:34 GMT 53.647869 -2.065187 30,000 334 425 0
2021-09-15 17:59:31 GMT 53.644455 -2.062369 30,000 334 425 0
2021-09-15 17:59:29 GMT 53.640060 -2.058759 30,000 334 426 0
2021-09-15 17:59:26 GMT 53.628086 -2.048950 30,000 334 426 0
2021-09-15 17:59:23 GMT 53.628086 -2.048950 30,000 334 426 0
2021-09-15 17:59:20 GMT 53.624454 -2.045961 30,000 334 426 0
2021-09-15 17:59:17 GMT 53.619240 -2.041680 30,000 335 425 0
2021-09-15 17:59:14 GMT 53.613739 -2.037258 30,000 335 425 0
2021-09-15 17:59:12 GMT 53.609978 -2.034167 30,000 335 425 0
2021-09-15 17:59:09 GMT 53.604858 -2.029960 30,000 335 425 0
2021-09-15 17:59:07 GMT 53.601273 -2.027058 30,000 335 425 0
2021-09-15 17:59:05 GMT 53.597946 -2.024309 30,000 335 425 0
2021-09-15 17:59:02 GMT 53.593552 -2.020700 30,000 335 425 0
2021-09-15 17:59:00 GMT 53.588425 -2.016541 30,000 335 425 0
2021-09-15 17:58:57 GMT 53.583801 -2.012774 30,000 335 425 0
2021-09-15 17:58:55 GMT 53.580414 -2.010027 30,000 335 425 0
2021-09-15 17:58:52 GMT 53.568970 -2.000610 30,000 335 425 0
2021-09-15 17:58:49 GMT 53.568970 -2.000610 30,000 335 425 0
2021-09-15 17:58:46 GMT 53.563519 -1.996200 30,000 335 425 0
2021-09-15 17:58:43 GMT 53.559357 -1.992763 30,000 335 425 0
2021-09-15 17:58:41 GMT 53.554642 -1.988996 30,000 335 425 0
2021-09-15 17:58:38 GMT 53.550064 -1.985213 30,000 335 425 0
2021-09-15 17:58:36 GMT 53.546898 -1.982628 30,000 335 425 0
2021-09-15 17:58:34 GMT 53.542282 -1.978873 30,000 335 426 0
2021-09-15 17:58:31 GMT 53.532074 -1.970555 30,000 335 426 -64
2021-09-15 17:58:28 GMT 53.532074 -1.970555 30,000 335 426 0
2021-09-15 17:58:26 GMT 53.527817 -1.967102 30,000 335 426 0
2021-09-15 17:58:23 GMT 53.523468 -1.963571 30,000 335 425 0
2021-09-15 17:58:20 GMT 53.518314 -1.959363 30,000 335 425 0
2021-09-15 17:58:17 GMT 53.508537 -1.951447 30,000 335 425 64
2021-09-15 17:58:14 GMT 53.508537 -1.951447 30,000 335 425 64
2021-09-15 17:58:12 GMT 53.504627 -1.948215 30,000 335 425 0
2021-09-15 17:58:09 GMT 53.497551 -1.942480 30,000 335 425 0
2021-09-15 17:58:06 GMT 53.490234 -1.936576 30,000 335 425 0
2021-09-15 17:58:04 GMT 53.490234 -1.936576 30,000 335 425 0
2021-09-15 17:58:02 GMT 53.486664 -1.933594 30,000 335 425 0
2021-09-15 17:58:00 GMT 53.481354 -1.929312 30,000 335 425 0
2021-09-15 17:57:57 GMT 53.477070 -1.925839 30,000 335 425 0
2021-09-15 17:57:54 GMT 53.472366 -1.921961 30,000 335 425 0
2021-09-15 17:57:52 GMT 53.468674 -1.918998 30,000 335 425 0
2021-09-15 17:57:50 GMT 53.464279 -1.915388 30,000 335 426 -64
2021-09-15 17:57:47 GMT 53.458866 -1.911056 30,000 335 426 -64
2021-09-15 17:57:44 GMT 53.451466 -1.904997 30,000 335 426 -64
2021-09-15 17:57:42 GMT 53.451466 -1.904997 30,000 335 425 0
2021-09-15 17:57:40 GMT 53.446949 -1.901281 30,000 335 425 0
2021-09-15 17:57:38 GMT 53.443542 -1.898516 30,000 335 425 0
2021-09-15 17:57:35 GMT 53.440060 -1.895707 30,000 335 425 0
2021-09-15 17:57:33 GMT 53.435715 -1.892238 30,000 335 425 64
2021-09-15 17:57:31 GMT 53.431274 -1.888628 30,000 335 425 64
2021-09-15 17:57:28 GMT 53.426094 -1.884398 30,000 335 425 64
2021-09-15 17:57:26 GMT 53.423626 -1.882459 30,000 335 425 64
2021-09-15 17:57:24 GMT 53.419018 -1.878662 30,000 335 425 0
2021-09-15 17:57:21 GMT 53.415249 -1.875592 30,000 335 425 0
2021-09-15 17:57:19 GMT 53.410732 -1.871957 30,000 335 425 0
2021-09-15 17:57:16 GMT 53.405319 -1.867597 30,000 335 425 -64
2021-09-15 17:57:13 GMT 53.399551 -1.862889 30,000 335 425 -64
2021-09-15 17:57:11 GMT 53.396118 -1.860064 30,000 335 425 -64
2021-09-15 17:57:08 GMT 53.386246 -1.852085 30,000 335 425 0
2021-09-15 17:57:05 GMT 53.386246 -1.852085 30,000 335 425 0
2021-09-15 17:57:02 GMT 53.375538 -1.843441 30,000 335 425 0
2021-09-15 17:57:00 GMT 53.375538 -1.843441 30,000 335 425 0
2021-09-15 17:56:57 GMT 53.370605 -1.839483 30,000 335 425 0
2021-09-15 17:56:54 GMT 53.365067 -1.834959 30,000 335 425 0
2021-09-15 17:56:51 GMT 53.361786 -1.832363 30,000 335 425 0
2021-09-15 17:56:49 GMT 53.358269 -1.829466 30,000 335 425 0
2021-09-15 17:56:47 GMT 53.352951 -1.825143 30,000 335 425 64
2021-09-15 17:56:44 GMT 53.348465 -1.821533 30,000 335 425 64
2021-09-15 17:56:42 GMT 53.345139 -1.818884 30,000 335 426 0
2021-09-15 17:56:40 GMT 53.338394 -1.813450 30,000 335 425 0
2021-09-15 17:56:38 GMT 53.338394 -1.813450 30,000 335 425 0
2021-09-15 17:56:35 GMT 53.327080 -1.804343 30,000 335 426 0
2021-09-15 17:56:32 GMT 53.327080 -1.804343 30,000 335 426 0
2021-09-15 17:56:29 GMT 53.322933 -1.800950 30,000 335 426 0
2021-09-15 17:56:27 GMT 53.318161 -1.797128 30,000 335 426 0
2021-09-15 17:56:25 GMT 53.314041 -1.793832 30,000 335 426 0
2021-09-15 17:56:22 GMT 53.308456 -1.789317 30,000 335 426 0
2021-09-15 17:56:19 GMT 53.305012 -1.786571 30,000 335 426 0
2021-09-15 17:56:16 GMT 53.299847 -1.782370 30,000 335 426 0
2021-09-15 17:56:13 GMT 53.290924 -1.775234 30,000 335 426 0
2021-09-15 17:56:11 GMT 53.290924 -1.775234 30,000 335 426 0
2021-09-15 17:56:09 GMT 53.287445 -1.772409 30,000 335 426 0
2021-09-15 17:56:06 GMT 53.277687 -1.764598 30,000 335 425 64
2021-09-15 17:56:04 GMT 53.277687 -1.764598 30,000 335 425 64
2021-09-15 17:56:01 GMT 53.270920 -1.759147 30,000 335 425 64
2021-09-15 17:55:58 GMT 53.267212 -1.756165 30,000 335 426 0
2021-09-15 17:55:55 GMT 53.263687 -1.753339 30,000 335 426 0
2021-09-15 17:55:53 GMT 53.258835 -1.749416 30,000 335 426 0
2021-09-15 17:55:51 GMT 53.254440 -1.745884 30,000 335 426 0
2021-09-15 17:55:48 GMT 53.244076 -1.737617 30,000 335 426 0
2021-09-15 17:55:45 GMT 53.244076 -1.737617 30,000 335 426 0
2021-09-15 17:55:42 GMT 53.239655 -1.734035 30,000 335 426 0
2021-09-15 17:55:40 GMT 53.235077 -1.730425 30,000 335 426 0
2021-09-15 17:55:38 GMT 53.232376 -1.728228 30,000 335 426 0
2021-09-15 17:55:35 GMT 53.226059 -1.723206 30,000 335 426 -64
2021-09-15 17:55:32 GMT 53.221756 -1.719674 30,000 335 426 0
2021-09-15 17:55:30 GMT 53.212189 -1.712062 30,000 335 426 0
2021-09-15 17:55:27 GMT 53.212189 -1.712062 30,000 335 426 0
2021-09-15 17:55:25 GMT 53.209579 -1.709990 30,000 335 426 0
2021-09-15 17:55:23 GMT 53.200874 -1.702962 30,000 335 426 -64
2021-09-15 17:55:21 GMT 53.195892 -1.698957 30,000 335 426 -64
2021-09-15 17:55:18 GMT 53.195892 -1.698957 30,000 335 426 -64
2021-09-15 17:55:15 GMT 53.190121 -1.694318 30,000 335 426 -64
2021-09-15 17:55:12 GMT 53.186863 -1.691733 30,000 335 425 0
2021-09-15 17:55:10 GMT 53.181381 -1.687343 30,000 335 425 0
2021-09-15 17:55:07 GMT 53.176064 -1.683009 30,000 335 425 64
2021-09-15 17:55:04 GMT 53.171310 -1.679260 30,000 335 425 64
2021-09-15 17:55:01 GMT 53.162338 -1.672041 30,000 335 425 64
2021-09-15 17:54:59 GMT 53.162338 -1.672041 30,000 335 425 64
2021-09-15 17:54:56 GMT 53.153996 -1.665398 30,000 335 425 0
2021-09-15 17:54:51 GMT 53.142700 -1.656424 30,000 335 426 0
2021-09-15 17:54:48 GMT 53.142700 -1.656424 30,000 335 426 0
2021-09-15 17:54:45 GMT 53.137749 -1.652473 30,000 335 426 -64
2021-09-15 17:54:42 GMT 53.131790 -1.647707 30,000 335 426 -64
2021-09-15 17:54:40 GMT 53.129837 -1.646172 30,000 335 426 0
2021-09-15 17:54:38 GMT 53.125366 -1.642618 30,000 335 426 0
2021-09-15 17:54:35 GMT 53.119034 -1.637591 30,000 335 426 0
2021-09-15 17:54:32 GMT 53.113544 -1.633247 30,000 335 426 0
2021-09-15 17:54:29 GMT 53.108234 -1.629046 30,000 335 426 0
2021-09-15 17:54:26 GMT 53.104065 -1.625741 30,000 335 426 0
2021-09-15 17:54:24 GMT 53.101776 -1.623858 30,000 335 426 0
2021-09-15 17:54:22 GMT 53.097530 -1.620483 30,000 335 426 0
2021-09-15 17:54:20 GMT 53.093201 -1.617031 30,000 335 426 0
2021-09-15 17:54:17 GMT 53.088497 -1.613342 30,000 335 425 0
2021-09-15 17:54:15 GMT 53.084976 -1.610489 30,000 335 425 0
2021-09-15 17:54:12 GMT 53.076324 -1.603622 30,000 335 426 0
2021-09-15 17:54:10 GMT 53.076324 -1.603622 30,000 335 427 0
2021-09-15 17:54:07 GMT 53.069962 -1.598511 30,000 335 426 0
2021-09-15 17:54:02 GMT 53.058285 -1.589251 30,000 335 426 0
2021-09-15 17:54:00 GMT 53.058285 -1.589251 30,000 335 426 0
2021-09-15 17:53:58 GMT 53.054901 -1.586533 30,000 335 426 0
2021-09-15 17:53:55 GMT 53.048264 -1.581268 30,000 335 426 0
2021-09-15 17:53:52 GMT 53.043594 -1.577530 30,000 335 426 0
2021-09-15 17:53:50 GMT 53.040344 -1.574936 30,000 335 426 0
2021-09-15 17:53:48 GMT 53.031509 -1.567917 30,000 335 426 0
2021-09-15 17:53:45 GMT 53.026062 -1.563568 30,000 335 426 64
2021-09-15 17:53:42 GMT 53.022392 -1.560608 30,000 335 426 64
2021-09-15 17:53:40 GMT 53.019787 -1.558568 30,000 335 426 64
2021-09-15 17:53:38 GMT 53.019787 -1.558568 30,000 335 426 0
2021-09-15 17:53:36 GMT 53.016434 -1.555899 30,000 335 426 0
2021-09-15 17:53:34 GMT 53.010910 -1.551514 30,000 335 426 -64
2021-09-15 17:53:31 GMT 53.007339 -1.548691 30,000 335 426 -64
2021-09-15 17:53:29 GMT 52.997910 -1.541214 30,000 335 426 0
2021-09-15 17:53:26 GMT 52.993996 -1.538086 30,000 335 426 0
2021-09-15 17:53:24 GMT 52.993996 -1.538086 30,000 335 426 0
2021-09-15 17:53:21 GMT 52.988525 -1.533813 30,000 335 426 0
2021-09-15 17:53:18 GMT 52.982529 -1.529007 30,000 335 426 0
2021-09-15 17:53:15 GMT 52.978310 -1.525687 30,000 335 426 0
2021-09-15 17:53:13 GMT 52.974026 -1.522313 30,000 335 426 0
2021-09-15 17:53:10 GMT 52.969208 -1.518478 30,000 335 426 0
2021-09-15 17:53:08 GMT 52.963898 -1.514282 30,000 335 426 0
2021-09-15 17:53:05 GMT 52.959782 -1.511012 30,000 335 426 64
2021-09-15 17:53:03 GMT 52.955544 -1.507638 30,000 335 426 0
2021-09-15 17:53:00 GMT 52.951122 -1.504185 30,000 335 426 0
2021-09-15 17:52:58 GMT 52.948380 -1.501999 30,000 335 426 0
2021-09-15 17:52:55 GMT 52.942474 -1.497269 30,000 335 426 0
2021-09-15 17:52:53 GMT 52.939903 -1.495318 30,000 335 426 0
2021-09-15 17:52:51 GMT 52.933990 -1.490609 30,000 335 426 0
2021-09-15 17:52:48 GMT 52.928558 -1.486359 30,000 335 426 0
2021-09-15 17:52:45 GMT 52.925949 -1.484299 30,000 335 426 0
2021-09-15 17:52:43 GMT 52.921608 -1.480879 30,000 335 426 0
2021-09-15 17:52:41 GMT 52.915371 -1.475935 30,000 335 426 0
2021-09-15 17:52:37 GMT 52.911133 -1.472560 30,000 335 426 0
2021-09-15 17:52:35 GMT 52.903687 -1.466675 30,000 335 426 0
2021-09-15 17:52:33 GMT 52.903687 -1.466675 30,000 335 426 0
2021-09-15 17:52:31 GMT 52.898705 -1.462751 30,000 335 425 0
2021-09-15 17:52:28 GMT 52.894409 -1.459351 30,000 335 425 0
2021-09-15 17:52:25 GMT 52.888790 -1.454904 30,000 335 425 0
2021-09-15 17:52:23 GMT 52.886398 -1.453018 30,000 335 424 0
2021-09-15 17:52:21 GMT 52.881729 -1.449356 30,000 335 424 0
2021-09-15 17:52:19 GMT 52.877338 -1.445879 30,025 335 424 -64
2021-09-15 17:52:16 GMT 52.872894 -1.442413 30,025 335 424 0
2021-09-15 17:52:14 GMT 52.869186 -1.439438 30,025 335 424 0
2021-09-15 17:52:11 GMT 52.863976 -1.435364 30,025 335 424 0
2021-09-15 17:52:09 GMT 52.861450 -1.433334 30,025 335 424 -64
2021-09-15 17:52:07 GMT 52.856251 -1.429243 30,025 335 424 -64
2021-09-15 17:52:04 GMT 52.851517 -1.425476 30,025 335 424 0
2021-09-15 17:52:01 GMT 52.846893 -1.421866 30,025 335 424 0
2021-09-15 17:51:59 GMT 52.844563 -1.420061 30,025 335 424 -64
2021-09-15 17:51:57 GMT 52.839256 -1.415902 30,000 335 425 0
2021-09-15 17:51:54 GMT 52.832748 -1.410751 30,000 335 425 64
2021-09-15 17:51:51 GMT 52.825836 -1.405334 30,000 335 426 256
2021-09-15 17:51:49 GMT 52.825836 -1.405334 30,000 335 426 256
2021-09-15 17:51:47 GMT 52.815720 -1.397400 29,975 335 427 384
2021-09-15 17:51:44 GMT 52.815720 -1.397400 29,950 335 427 512
2021-09-15 17:51:41 GMT 52.811092 -1.393773 29,925 335 427 640
2021-09-15 17:51:39 GMT 52.807323 -1.390791 29,900 335 428 896
2021-09-15 17:51:36 GMT 52.801224 -1.386082 29,850 335 428 1088
2021-09-15 17:51:33 GMT 52.796661 -1.382472 29,825 335 428 1216
2021-09-15 17:51:30 GMT 52.791367 -1.378326 29,750 335 430 1920
2021-09-15 17:51:27 GMT 52.787678 -1.375410 29,700 335 430 1920
2021-09-15 17:51:25 GMT 52.782166 -1.371078 29,600 335 429 1792
2021-09-15 17:51:23 GMT 52.780380 -1.369705 29,575 335 430 1920
2021-09-15 17:51:21 GMT 52.775208 -1.365662 29,475 335 430 1920
2021-09-15 17:51:19 GMT 52.771820 -1.362991 29,425 335 431 1856
2021-09-15 17:51:16 GMT 52.766773 -1.359087 29,250 335 432 1728
2021-09-15 17:51:13 GMT 52.761887 -1.355209 29,250 335 432 1728
2021-09-15 17:51:11 GMT 52.757446 -1.351776 29,200 335 432 1728
2021-09-15 17:51:09 GMT 52.754242 -1.349258 29,150 335 432 1728
2021-09-15 17:51:07 GMT 52.750168 -1.346054 29,050 335 432 1728
2021-09-15 17:51:04 GMT 52.741730 -1.339390 28,975 335 433 1728
2021-09-15 17:51:02 GMT 52.741730 -1.339390 28,825 335 434 1728
2021-09-15 17:50:59 GMT 52.736050 -1.334996 28,825 335 434 1664
2021-09-15 17:50:57 GMT 52.731487 -1.331386 28,825 335 434 1728
2021-09-15 17:50:54 GMT 52.727810 -1.328561 28,725 335 435 1664
2021-09-15 17:50:52 GMT 52.723156 -1.324873 28,625 335 435 1664
2021-09-15 17:50:49 GMT 52.717850 -1.320714 28,575 335 436 1664
2021-09-15 17:50:47 GMT 52.714554 -1.318130 28,275 335 436 1664
2021-09-15 17:50:44 GMT 52.709332 -1.314043 28,425 335 436 1664
2021-09-15 17:50:42 GMT 52.704582 -1.310355 28,325 335 436 1600
2021-09-15 17:50:39 GMT 52.699905 -1.306763 28,300 335 437 1600
2021-09-15 17:50:37 GMT 52.695328 -1.303177 28,200 335 437 1664
2021-09-15 17:50:34 GMT 52.687824 -1.297328 28,100 335 437 1856
2021-09-15 17:50:30 GMT 52.683517 -1.293945 28,025 335 437 1984
2021-09-15 17:50:28 GMT 52.677933 -1.289597 27,875 335 437 2112
2021-09-15 17:50:25 GMT 52.673996 -1.286577 27,850 335 439 2112
2021-09-15 17:50:23 GMT 52.669418 -1.283035 27,775 335 439 2048
2021-09-15 17:50:20 GMT 52.663055 -1.278076 27,650 335 440 1920
2021-09-15 17:50:17 GMT 52.659939 -1.275591 27,550 335 440 1792
2021-09-15 17:50:14 GMT 52.654037 -1.271057 27,500 335 440 1728
2021-09-15 17:50:12 GMT 52.650513 -1.268311 27,400 335 441 1664
2021-09-15 17:50:10 GMT 52.645973 -1.264762 27,350 335 441 1600
2021-09-15 17:50:07 GMT 52.639175 -1.259426 27,225 335 441 1472
2021-09-15 17:50:04 GMT 52.635777 -1.256757 27,250 335 441 1472
2021-09-15 17:50:02 GMT 52.632332 -1.254089 27,200 335 441 1472
2021-09-15 17:49:59 GMT 52.625954 -1.249146 27,125 335 441 1472
2021-09-15 17:49:57 GMT 52.621487 -1.245693 27,025 335 441 1408
2021-09-15 17:49:54 GMT 52.617668 -1.242711 27,000 335 441 1152
2021-09-15 17:49:52 GMT 52.613892 -1.239777 26,950 335 441 1088
2021-09-15 17:49:50 GMT 52.610092 -1.236801 26,925 335 441 1024
2021-09-15 17:49:47 GMT 52.604324 -1.232376 26,850 335 439 1088
2021-09-15 17:49:45 GMT 52.600071 -1.229056 26,825 335 439 1088
2021-09-15 17:49:42 GMT 52.595215 -1.225281 26,775 335 438 1280
2021-09-15 17:49:40 GMT 52.591644 -1.222534 26,750 335 439 1216
2021-09-15 17:49:38 GMT 52.582241 -1.215245 26,675 335 438 1344
2021-09-15 17:49:36 GMT 52.582241 -1.215245 26,625 335 437 1472
2021-09-15 17:49:33 GMT 52.578518 -1.212341 26,575 335 437 1472
2021-09-15 17:49:30 GMT 52.571732 -1.207123 26,500 335 437 1536
2021-09-15 17:49:27 GMT 52.567108 -1.203461 26,425 335 437 1536
2021-09-15 17:49:24 GMT 52.562073 -1.199570 26,375 335 437 1600
2021-09-15 17:49:22 GMT 52.557632 -1.196136 26,300 335 437 1600
2021-09-15 17:49:19 GMT 52.553879 -1.193237 26,250 335 437 1600
2021-09-15 17:49:17 GMT 52.549980 -1.190212 26,125 335 437 1472
2021-09-15 17:49:14 GMT 52.540192 -1.182709 26,075 335 437 1408
2021-09-15 17:49:12 GMT 52.535889 -1.179352 25,700 335 434 1152
2021-09-15 17:49:08 GMT 52.534016 -1.177891 25,950 335 437 1216
2021-09-15 17:49:06 GMT 52.528706 -1.173811 25,875 335 436 1088
2021-09-15 17:49:03 GMT 52.524124 -1.170273 25,875 335 436 1088
2021-09-15 17:49:01 GMT 52.520416 -1.167374 25,800 335 435 1088
2021-09-15 17:48:58 GMT 52.515858 -1.163845 25,800 335 435 1088
2021-09-15 17:48:56 GMT 52.510647 -1.159842 25,725 335 434 1152
2021-09-15 17:48:53 GMT 52.504684 -1.155212 25,675 335 434 1152
2021-09-15 17:48:51 GMT 52.500778 -1.152191 25,650 335 434 1216
2021-09-15 17:48:48 GMT 52.497284 -1.149562 25,600 335 433 1216
2021-09-15 17:48:46 GMT 52.487686 -1.142120 25,475 335 433 1088
2021-09-15 17:48:43 GMT 52.487686 -1.142120 25,475 335 432 1024
2021-09-15 17:48:41 GMT 52.484436 -1.139596 25,450 335 431 960
2021-09-15 17:48:39 GMT 52.480591 -1.136627 25,425 335 431 960
2021-09-15 17:48:37 GMT 52.476974 -1.133804 25,400 335 431 960
2021-09-15 17:48:35 GMT 52.472443 -1.130295 25,375 335 430 1024
2021-09-15 17:48:32 GMT 52.467911 -1.126805 25,325 335 429 1152
2021-09-15 17:48:29 GMT 52.457390 -1.118644 25,225 335 428 1088
2021-09-15 17:48:26 GMT 52.457390 -1.118644 25,200 335 428 1088
2021-09-15 17:48:23 GMT 52.452129 -1.114641 25,175 335 428 1088
2021-09-15 17:48:21 GMT 52.447193 -1.110796 25,100 335 426 1216
2021-09-15 17:48:18 GMT 52.437927 -1.103668 25,025 335 426 1152
2021-09-15 17:48:16 GMT 52.433258 -1.100082 25,000 335 426 1088
2021-09-15 17:48:13 GMT 52.430622 -1.098083 24,950 335 425 1088
2021-09-15 17:48:11 GMT 52.427078 -1.095276 24,900 335 424 1024
2021-09-15 17:48:09 GMT 52.427078 -1.095276 24,900 335 424 1024
2021-09-15 17:48:06 GMT 52.420944 -1.090622 24,825 335 423 960
2021-09-15 17:48:03 GMT 52.416092 -1.086884 24,775 335 422 960
2021-09-15 17:48:01 GMT 52.412701 -1.084272 24,750 335 422 960
2021-09-15 17:47:59 GMT 52.408089 -1.080662 24,700 335 420 960
2021-09-15 17:47:56 GMT 52.403763 -1.077366 24,575 335 418 1088
2021-09-15 17:47:54 GMT 52.397987 -1.072972 24,625 335 418 1024
2021-09-15 17:47:52 GMT 52.394485 -1.070251 24,575 335 418 1152
2021-09-15 17:47:48 GMT 52.390308 -1.067008 24,525 335 417 1280
2021-09-15 17:47:46 GMT 52.384628 -1.062692 24,450 335 417 1408
2021-09-15 17:47:43 GMT 52.375717 -1.055832 24,375 335 416 1728
2021-09-15 17:47:40 GMT 52.375717 -1.055832 24,325 335 416 1856
2021-09-15 17:47:38 GMT 52.371220 -1.052333 24,150 335 417 2048
2021-09-15 17:47:35 GMT 52.366379 -1.048660 24,100 335 417 2048
2021-09-15 17:47:32 GMT 52.354843 -1.039810 23,875 335 418 1984
2021-09-15 17:47:29 GMT 52.351593 -1.037292 23,925 335 418 1728
2021-09-15 17:47:26 GMT 52.351593 -1.037292 23,725 335 418 1600
2021-09-15 17:47:24 GMT 52.342255 -1.030197 23,750 335 418 1600
2021-09-15 17:47:21 GMT 52.342255 -1.030197 23,700 335 418 1664
2021-09-15 17:47:19 GMT 52.339371 -1.027985 23,675 335 418 1664
2021-09-15 17:47:17 GMT 52.335434 -1.024933 23,550 335 418 1664
2021-09-15 17:47:14 GMT 52.330032 -1.020813 23,525 335 417 1600
2021-09-15 17:47:11 GMT 52.325592 -1.017456 23,500 335 417 1536
2021-09-15 17:47:09 GMT 52.322159 -1.014786 23,400 335 417 1536
2021-09-15 17:47:07 GMT 52.318085 -1.011734 23,300 335 417 1792
2021-09-15 17:47:05 GMT 52.313683 -1.008388 23,250 335 417 1920
2021-09-15 17:47:02 GMT 52.310143 -1.005641 23,175 335 417 1920
2021-09-15 17:47:00 GMT 52.306549 -1.002884 23,125 335 417 1856
2021-09-15 17:46:58 GMT 52.299717 -0.997716 23,075 335 417 1728
2021-09-15 17:46:56 GMT 52.299717 -0.997716 23,000 335 417 1664
2021-09-15 17:46:54 GMT 52.290939 -0.990982 22,925 335 416 1664
2021-09-15 17:46:52 GMT 52.290939 -0.990982 22,875 335 415 1408
2021-09-15 17:46:49 GMT 52.286728 -0.987749 22,825 335 416 1536
2021-09-15 17:46:46 GMT 52.282166 -0.984297 22,750 335 415 1408
2021-09-15 17:46:44 GMT 52.278351 -0.981393 22,600 335 414 1472
2021-09-15 17:46:42 GMT 52.274952 -0.978725 22,625 335 415 1472
2021-09-15 17:46:40 GMT 52.267082 -0.972761 22,600 335 414 1472
2021-09-15 17:46:38 GMT 52.267082 -0.972761 22,550 335 414 1472
2021-09-15 17:46:36 GMT 52.263702 -0.970154 22,500 335 414 1472
2021-09-15 17:46:34 GMT 52.260891 -0.967974 22,375 335 412 1344
2021-09-15 17:46:32 GMT 52.256424 -0.964584 22,375 335 412 1344
2021-09-15 17:46:30 GMT 52.254467 -0.963030 22,375 335 412 1344
2021-09-15 17:46:28 GMT 52.250748 -0.960236 22,325 335 412 1344
2021-09-15 17:46:26 GMT 52.246719 -0.957184 22,250 335 412 1408
2021-09-15 17:46:23 GMT 52.242413 -0.953849 22,225 335 410 1472
2021-09-15 17:46:21 GMT 52.238316 -0.950710 22,150 335 410 1536
2021-09-15 17:46:19 GMT 52.233719 -0.947266 22,075 335 410 1664
2021-09-15 17:46:16 GMT 52.226715 -0.941925 21,750 336 409 1664
2021-09-15 17:46:14 GMT 52.221359 -0.937881 21,750 336 409 1664
2021-09-15 17:46:11 GMT 52.215549 -0.933446 21,750 336 409 1856
2021-09-15 17:46:08 GMT 52.213806 -0.932083 21,775 336 409 1792
2021-09-15 17:46:06 GMT 52.208523 -0.928109 21,700 336 409 1728
2021-09-15 17:46:04 GMT 52.208523 -0.928109 21,650 336 409 1664
2021-09-15 17:46:01 GMT 52.204239 -0.924835 21,600 335 408 1664
2021-09-15 17:45:58 GMT 52.193939 -0.917053 21,425 335 408 2048
2021-09-15 17:45:55 GMT 52.193939 -0.917053 21,400 335 408 2048
2021-09-15 17:45:53 GMT 52.191238 -0.914993 21,350 335 408 2176
2021-09-15 17:45:51 GMT 52.183090 -0.908813 21,225 335 408 1984
2021-09-15 17:45:49 GMT 52.183090 -0.908813 21,125 335 408 1984
2021-09-15 17:45:46 GMT 52.178680 -0.905430 21,075 335 408 1984
2021-09-15 17:45:44 GMT 52.175171 -0.902786 20,925 335 407 1664
2021-09-15 17:45:41 GMT 52.163727 -0.894012 20,875 335 407 1664
2021-09-15 17:45:38 GMT 52.163727 -0.894012 20,800 335 406 1408
2021-09-15 17:45:35 GMT 52.159081 -0.890520 20,775 335 406 1408
2021-09-15 17:45:33 GMT 52.153824 -0.886518 20,700 335 405 1344
2021-09-15 17:45:31 GMT 52.153824 -0.886518 20,675 336 404 1344
2021-09-15 17:45:29 GMT 52.149632 -0.883379 20,650 336 404 1280
2021-09-15 17:45:27 GMT 52.146973 -0.881348 20,600 335 403 1344
2021-09-15 17:45:25 GMT 52.142670 -0.878067 20,575 336 402 1408
2021-09-15 17:45:23 GMT 52.139854 -0.875924 20,525 336 402 1472
2021-09-15 17:45:21 GMT 52.136459 -0.873335 20,450 335 401 1600
2021-09-15 17:45:19 GMT 52.132408 -0.870274 20,400 335 401 1664
2021-09-15 17:45:17 GMT 52.125610 -0.865173 20,300 336 400 1600
2021-09-15 17:45:14 GMT 52.125610 -0.865173 20,275 336 400 1600
2021-09-15 17:45:12 GMT 52.120651 -0.861359 20,200 336 399 1664
2021-09-15 17:45:10 GMT 52.113602 -0.856018 20,075 336 398 1600
2021-09-15 17:45:06 GMT 52.110107 -0.853402 20,025 336 398 1600
2021-09-15 17:45:04 GMT 52.106571 -0.850734 20,000 336 398 1600
2021-09-15 17:45:01 GMT 52.102474 -0.847674 19,925 336 394 1344
2021-09-15 17:44:59 GMT 52.098610 -0.844770 19,850 336 395 1408
2021-09-15 17:44:57 GMT 52.095352 -0.842259 19,800 335 395 1344
2021-09-15 17:44:54 GMT 52.090393 -0.838547 19,725 336 393 1344
2021-09-15 17:44:52 GMT 52.087067 -0.835981 19,675 336 392 1344
2021-09-15 17:44:48 GMT 52.077255 -0.828629 19,550 336 391 1600
2021-09-15 17:44:45 GMT 52.077255 -0.828629 19,500 336 390 1792
2021-09-15 17:44:43 GMT 52.072308 -0.824838 19,175 336 389 2432
2021-09-15 17:44:40 GMT 52.068054 -0.821686 19,350 336 389 2240
2021-09-15 17:44:37 GMT 52.063324 -0.818089 19,250 336 389 2304
2021-09-15 17:44:35 GMT 52.060112 -0.815656 19,175 336 389 2368
2021-09-15 17:44:33 GMT 52.056576 -0.812988 19,075 336 389 2432
2021-09-15 17:44:31 GMT 52.053085 -0.810394 19,000 336 389 2496
2021-09-15 17:44:29 GMT 52.050934 -0.808716 18,950 336 389 2560
2021-09-15 17:44:27 GMT 52.046703 -0.805533 18,800 336 390 2688
2021-09-15 17:44:25 GMT 52.042786 -0.802612 18,700 336 390 2752
2021-09-15 17:44:22 GMT 52.038574 -0.799408 18,600 336 391 2752
2021-09-15 17:44:20 GMT 52.036240 -0.797653 18,500 336 391 2752
2021-09-15 17:44:18 GMT 52.026268 -0.790152 18,350 336 392 2560
2021-09-15 17:44:15 GMT 52.026268 -0.790152 18,125 336 392 2176
2021-09-15 17:44:12 GMT 52.021847 -0.786778 18,100 336 392 2112
2021-09-15 17:44:09 GMT 52.013168 -0.780258 18,025 336 391 1920
2021-09-15 17:44:07 GMT 52.013168 -0.780258 17,975 336 391 1920
2021-09-15 17:44:04 GMT 52.008865 -0.777054 17,925 336 391 1920
2021-09-15 17:44:02 GMT 52.005890 -0.774765 17,850 336 390 1984
2021-09-15 17:44:00 GMT 52.003464 -0.772934 17,800 336 390 1984
2021-09-15 17:43:58 GMT 51.998520 -0.769196 17,675 336 387 1984
2021-09-15 17:43:55 GMT 51.994766 -0.766373 17,625 336 389 1920
2021-09-15 17:43:53 GMT 51.990891 -0.763471 17,600 336 389 1984
2021-09-15 17:43:50 GMT 51.985886 -0.759735 17,425 336 387 1984
2021-09-15 17:43:47 GMT 51.980804 -0.755844 17,350 336 387 2048
2021-09-15 17:43:44 GMT 51.976551 -0.752720 17,250 336 387 2048
2021-09-15 17:43:41 GMT 51.968445 -0.746613 17,100 336 385 2112
2021-09-15 17:43:39 GMT 51.964096 -0.743332 17,050 336 385 2048
2021-09-15 17:43:37 GMT 51.964096 -0.743332 17,000 336 384 2048
2021-09-15 17:43:34 GMT 51.959045 -0.739615 16,875 336 384 1920
2021-09-15 17:43:31 GMT 51.955078 -0.736618 16,800 336 383 1856
2021-09-15 17:43:29 GMT 51.952110 -0.734358 16,750 336 382 1856
2021-09-15 17:43:27 GMT 51.950294 -0.733024 16,725 336 382 1792
2021-09-15 17:43:25 GMT 51.945328 -0.729294 16,625 336 381 1792
2021-09-15 17:43:23 GMT 51.942383 -0.727138 16,575 336 381 1792
2021-09-15 17:43:20 GMT 51.934753 -0.721359 16,425 336 379 1920
2021-09-15 17:43:18 GMT 51.934753 -0.721359 16,425 336 379 1984
2021-09-15 17:43:15 GMT 51.930183 -0.717957 16,325 335 378 2112
2021-09-15 17:43:12 GMT 51.919712 -0.709952 16,175 335 377 2240
2021-09-15 17:43:09 GMT 51.919712 -0.709952 16,125 335 377 2240
2021-09-15 17:43:06 GMT 51.916672 -0.707626 15,775 334 377 2304
2021-09-15 17:43:04 GMT 51.912029 -0.703910 15,900 334 376 2240
2021-09-15 17:43:02 GMT 51.909889 -0.702105 15,850 334 376 2240
2021-09-15 17:43:00 GMT 51.902435 -0.695953 15,700 334 375 2176
2021-09-15 17:42:58 GMT 51.902435 -0.695953 15,650 334 375 1984
2021-09-15 17:42:55 GMT 51.898819 -0.693054 15,475 334 365 2368
2021-09-15 17:42:53 GMT 51.895660 -0.690460 15,500 334 374 1728
2021-09-15 17:42:51 GMT 51.889389 -0.685309 15,450 334 372 1600
2021-09-15 17:42:49 GMT 51.889389 -0.685309 15,425 334 372 1536
2021-09-15 17:42:47 GMT 51.886826 -0.683231 15,375 334 371 1472
2021-09-15 17:42:45 GMT 51.882568 -0.679742 15,300 334 369 1472
2021-09-15 17:42:42 GMT 51.878418 -0.676346 15,225 334 368 1664
2021-09-15 17:42:39 GMT 51.873020 -0.671997 15,075 334 366 1984
2021-09-15 17:42:36 GMT 51.870644 -0.670090 15,050 334 366 2176
2021-09-15 17:42:34 GMT 51.866959 -0.667123 15,000 334 365 2240
2021-09-15 17:42:32 GMT 51.863289 -0.664215 14,800 334 365 2432
2021-09-15 17:42:29 GMT 51.858959 -0.660782 14,775 335 364 2688
2021-09-15 17:42:27 GMT 51.855377 -0.657959 14,575 335 365 2752
2021-09-15 17:42:24 GMT 51.851837 -0.655289 14,475 336 364 2688
2021-09-15 17:42:21 GMT 51.847092 -0.651756 14,425 337 364 2560
2021-09-15 17:42:19 GMT 51.843018 -0.648936 14,350 338 365 2496
2021-09-15 17:42:16 GMT 51.839130 -0.646591 14,175 343 365 2176
2021-09-15 17:42:13 GMT 51.834412 -0.644259 14,075 347 364 1984
2021-09-15 17:42:10 GMT 51.827026 -0.641632 13,975 351 364 1792
2021-09-15 17:42:06 GMT 51.822601 -0.640696 13,725 358 363 1536
2021-09-15 17:42:04 GMT 51.819946 -0.640325 13,850 359 363 1600
2021-09-15 17:42:02 GMT 51.814728 -0.640176 13,775 2 362 1856
2021-09-15 17:41:59 GMT 51.807999 -0.640696 13,675 4 362 2048
2021-09-15 17:41:57 GMT 51.807999 -0.640696 13,625 5 361 2240
2021-09-15 17:41:55 GMT 51.797836 -0.642395 13,500 6 361 2496
2021-09-15 17:41:52 GMT 51.794483 -0.643005 13,375 6 360 2304
2021-09-15 17:41:49 GMT 51.789551 -0.643845 13,250 6 359 2176
2021-09-15 17:41:47 GMT 51.789551 -0.643845 13,200 6 359 2176
2021-09-15 17:41:44 GMT 51.786850 -0.644302 13,175 6 358 2176
2021-09-15 17:41:42 GMT 51.782639 -0.645076 13,050 6 357 2240
2021-09-15 17:41:39 GMT 51.778473 -0.645744 12,975 6 356 2304
2021-09-15 17:41:37 GMT 51.774536 -0.646486 12,800 6 355 2432
2021-09-15 17:41:34 GMT 51.769627 -0.647354 12,775 6 355 2496
2021-09-15 17:41:32 GMT 51.765858 -0.648117 12,600 6 354 2624
2021-09-15 17:41:29 GMT 51.760849 -0.649010 12,500 6 354 2624
2021-09-15 17:41:27 GMT 51.757782 -0.649604 12,425 6 353 2688
2021-09-15 17:41:24 GMT 51.753799 -0.650406 12,300 6 353 2688
2021-09-15 17:41:22 GMT 51.750824 -0.650940 12,250 6 353 2624
2021-09-15 17:41:20 GMT 51.746704 -0.651756 12,125 6 352 2624
2021-09-15 17:41:18 GMT 51.744301 -0.652237 12,025 6 351 2560
2021-09-15 17:41:16 GMT 51.740387 -0.653018 11,950 6 351 2496
2021-09-15 17:41:13 GMT 51.735226 -0.653992 11,875 6 351 2432
2021-09-15 17:41:11 GMT 51.732758 -0.654449 11,750 6 350 2368
2021-09-15 17:41:08 GMT 51.728806 -0.655171 11,525 6 347 1920
2021-09-15 17:41:06 GMT 51.724655 -0.655975 11,550 6 348 1984
2021-09-15 17:41:04 GMT 51.721207 -0.656656 11,500 6 347 1856
2021-09-15 17:41:02 GMT 51.719116 -0.657043 11,475 6 346 1792
2021-09-15 17:41:00 GMT 51.714649 -0.657883 11,400 6 344 1536
2021-09-15 17:40:58 GMT 51.710644 -0.658569 11,325 6 341 1280
2021-09-15 17:40:55 GMT 51.702869 -0.660019 11,250 6 338 1024
2021-09-15 17:40:52 GMT 51.702869 -0.660019 11,225 6 337 960
2021-09-15 17:40:50 GMT 51.699890 -0.660629 11,225 6 336 896
2021-09-15 17:40:48 GMT 51.696728 -0.661163 11,175 6 333 896
2021-09-15 17:40:46 GMT 51.692917 -0.661926 11,150 6 328 896
2021-09-15 17:40:42 GMT 51.686966 -0.663040 11,075 6 322 896
2021-09-15 17:40:39 GMT 51.682343 -0.664005 11,025 6 321 896
2021-09-15 17:40:37 GMT 51.678661 -0.664673 11,000 7 316 896
2021-09-15 17:40:34 GMT 51.675201 -0.665415 10,975 6 313 896
2021-09-15 17:40:32 GMT 51.672134 -0.666009 10,900 7 309 896
2021-09-15 17:40:29 GMT 51.667583 -0.666885 10,850 7 306 896
2021-09-15 17:40:27 GMT 51.661255 -0.668182 10,825 6 304 960
2021-09-15 17:40:24 GMT 51.658554 -0.668716 10,800 7 300 1024
2021-09-15 17:40:22 GMT 51.658554 -0.668716 10,775 7 298 1024
2021-09-15 17:40:20 GMT 51.656250 -0.669127 10,725 7 294 1216
2021-09-15 17:40:18 GMT 51.650265 -0.670395 10,675 7 292 1280
2021-09-15 17:40:16 GMT 51.646496 -0.671082 10,600 7 287 1664
2021-09-15 17:40:13 GMT 51.642426 -0.671948 10,525 7 286 1856
2021-09-15 17:40:11 GMT 51.642426 -0.671948 10,475 7 283 2496
2021-09-15 17:40:08 GMT 51.639450 -0.672467 10,375 7 283 2688
2021-09-15 17:40:05 GMT 51.636951 -0.672989 10,300 6 282 3008
2021-09-15 17:40:03 GMT 51.633087 -0.673729 10,125 6 282 3392
2021-09-15 17:40:01 GMT 51.630016 -0.674362 9,925 6 282 3392
2021-09-15 17:39:58 GMT 51.626633 -0.675065 9,900 6 282 3392
2021-09-15 17:39:56 GMT 51.624664 -0.675430 9,675 6 282 3328
2021-09-15 17:39:54 GMT 51.621452 -0.676041 9,625 6 282 3136
2021-09-15 17:39:51 GMT 51.617203 -0.676847 9,450 6 282 3008
2021-09-15 17:39:48 GMT 51.610416 -0.678177 9,275 6 281 2880
2021-09-15 17:39:46 GMT 51.610416 -0.678177 9,200 6 281 2880
2021-09-15 17:39:43 GMT 51.607719 -0.678711 9,100 6 280 2816
2021-09-15 17:39:41 GMT 51.605808 -0.679092 8,750 6 279 2816
2021-09-15 17:39:39 GMT 51.602051 -0.679816 8,975 7 277 2816
2021-09-15 17:39:37 GMT 51.595894 -0.681076 8,650 7 276 2816
2021-09-15 17:39:34 GMT 51.593517 -0.681534 8,650 7 276 2816
2021-09-15 17:39:32 GMT 51.593517 -0.681534 8,600 7 275 2816
2021-09-15 17:39:29 GMT 51.589371 -0.682340 8,425 6 273 2880
2021-09-15 17:39:27 GMT 51.585388 -0.683082 8,050 6 266 2688
2021-09-15 17:39:25 GMT 51.581360 -0.683825 8,050 6 266 2688
2021-09-15 17:39:23 GMT 51.581360 -0.683825 8,075 6 271 2944
2021-09-15 17:39:20 GMT 51.575783 -0.684891 7,900 6 269 2752
2021-09-15 17:39:16 GMT 51.573036 -0.685425 7,775 6 267 2688
2021-09-15 17:39:13 GMT 51.569183 -0.686200 7,575 6 266 2688
2021-09-15 17:39:10 GMT 51.562656 -0.687332 7,550 5 264 2816
2021-09-15 17:39:07 GMT 51.560280 -0.687714 7,375 5 263 2880
2021-09-15 17:39:05 GMT 51.560280 -0.687714 7,300 5 263 2944
2021-09-15 17:39:02 GMT 51.557098 -0.688130 7,200 4 261 3072
2021-09-15 17:39:00 GMT 51.553986 -0.688427 5,600 327 257 4608
2021-09-15 17:38:57 GMT 51.550274 -0.688553 6,900 0 259 3264
2021-09-15 17:38:55 GMT 51.548409 -0.688477 6,750 355 257 3328
2021-09-15 17:38:53 GMT 51.544964 -0.688019 6,650 350 256 3584
2021-09-15 17:38:50 GMT 51.542084 -0.687239 6,550 350 256 3584
2021-09-15 17:38:47 GMT 51.536400 -0.684509 6,200 341 254 4096
2021-09-15 17:38:42 GMT 51.533978 -0.682907 5,850 332 255 4352
2021-09-15 17:38:40 GMT 51.531006 -0.680336 5,800 331 256 4416
2021-09-15 17:38:37 GMT 51.528305 -0.677738 5,600 327 257 4672
2021-09-15 17:38:33 GMT 51.523273 -0.672150 5,150 324 261 4736
2021-09-15 17:38:30 GMT 51.521347 -0.669795 5,150 323 262 4672
2021-09-15 17:38:28 GMT 51.519409 -0.667191 4,750 321 264 4480
2021-09-15 17:38:26 GMT 51.517181 -0.663931 4,650 312 267 3968
2021-09-15 17:38:23 GMT 51.512512 -0.654948 4,200 307 268 3712
2021-09-15 17:38:20 GMT 51.512512 -0.654948 4,350 303 268 3520
2021-09-15 17:38:17 GMT 51.510517 -0.649796 4,175 300 267 3328
2021-09-15 17:38:14 GMT 51.509075 -0.645599 4,000 299 267 3328
2021-09-15 17:38:11 GMT 51.507339 -0.640399 3,875 298 265 3264
2021-09-15 17:38:09 GMT 51.506374 -0.637436 3,775 298 265 3200
2021-09-15 17:38:07 GMT 51.504700 -0.632324 3,625 298 264 3200
2021-09-15 17:38:04 GMT 51.503540 -0.628745 3,300 298 263 3200
2021-09-15 17:38:01 GMT 51.501301 -0.621948 3,275 298 260 3200
2021-09-15 17:37:58 GMT 51.499649 -0.617016 3,150 299 259 3200
2021-09-15 17:37:56 GMT 51.498692 -0.614166 3,075 299 259 3136
2021-09-15 17:37:53 GMT 51.497017 -0.609131 2,850 299 255 2816
2021-09-15 17:37:50 GMT 51.495247 -0.603943 2,775 299 255 2816
2021-09-15 17:37:48 GMT 51.494038 -0.600357 2,700 299 254 2560
2021-09-15 17:37:46 GMT 51.493526 -0.598755 2,650 299 253 2496
2021-09-15 17:37:44 GMT 51.492188 -0.594821 2,550 299 251 2240
2021-09-15 17:37:41 GMT 51.490082 -0.588455 2,400 299 242 1792
2021-09-15 17:37:38 GMT 51.487705 -0.581436 2,300 298 236 1600
2021-09-15 17:37:36 GMT 51.487705 -0.581436 2,225 299 240 1600
2021-09-15 17:37:33 GMT 51.486122 -0.576706 2,175 298 233 1536
2021-09-15 17:37:30 GMT 51.484726 -0.572433 2,050 297 225 1536
2021-09-15 17:37:27 GMT 51.483143 -0.567398 2,025 297 224 1472
2021-09-15 17:37:26 GMT 51.482258 -0.564575 1,975 296 221 1344
2021-09-15 17:37:24 GMT 51.481796 -0.563049 1,950 295 219 1152
2021-09-15 17:37:23 GMT 51.480835 -0.559783 1,925 294 216 768
2021-09-15 17:37:20 GMT 51.480057 -0.556888 1,900 293 213 640
2021-09-15 17:37:19 GMT 51.479652 -0.555267 1,875 292 208 448
2021-09-15 17:37:18 GMT 51.478909 -0.552216 1,875 289 204 448
2021-09-15 17:37:15 GMT 51.478363 -0.549539 1,850 286 201 768
2021-09-15 17:37:13 GMT 51.477650 -0.545197 1,800 280 196 960
2021-09-15 17:37:10 GMT 51.477371 -0.542526 1,800 278 195 960
2021-09-15 17:37:08 GMT 51.477219 -0.539889 1,750 275 192 896
2021-09-15 17:37:06 GMT 51.477139 -0.536957 1,725 272 189 896
2021-09-15 17:37:04 GMT 51.477127 -0.532837 1,675 270 185 832
2021-09-15 17:37:02 GMT 51.477139 -0.530548 1,650 270 182 640
2021-09-15 17:36:59 GMT 51.477173 -0.527863 1,625 270 178 512
2021-09-15 17:36:58 GMT 51.477184 -0.526428 1,625 270 176 320
2021-09-15 17:36:56 GMT 51.477173 -0.524152 1,625 270 172 320
2021-09-15 17:36:55 GMT 51.477219 -0.522890 1,600 270 170 448
2021-09-15 17:36:54 GMT 51.477234 -0.519180 1,575 270 166 896
2021-09-15 17:36:52 GMT 51.477234 -0.519180 1,575 270 165 1024
2021-09-15 17:36:50 GMT 51.477280 -0.516663 1,525 270 163 1152
2021-09-15 17:36:49 GMT 51.477280 -0.515442 1,500 270 162 1216
2021-09-15 17:36:48 GMT 51.477280 -0.512848 1,475 270 160 1344
2021-09-15 17:36:46 GMT 51.477310 -0.511607 1,450 270 159 1408
2021-09-15 17:36:45 GMT 51.477310 -0.509157 1,375 270 157 1472
2021-09-15 17:36:42 GMT 51.477310 -0.506930 1,325 270 153 1536
2021-09-15 17:36:41 GMT 51.477356 -0.504851 1,300 270 152 1792
2021-09-15 17:36:39 GMT 51.477371 -0.503769 1,275 270 151 1984
2021-09-15 17:36:37 GMT 51.477356 -0.501066 1,175 270 149 2432
2021-09-15 17:36:36 GMT 51.477371 -0.500031 1,125 270 149 2560
2021-09-15 17:36:34 GMT 51.477371 -0.497894 1,050 270 149 2560
2021-09-15 17:36:32 GMT 51.477402 -0.495572 950 270 149 2496
2021-09-15 17:36:31 GMT 51.477417 -0.494461 925 270 149 2496
2021-09-15 17:36:30 GMT 51.477402 -0.492381 825 270 149 2432
2021-09-15 17:36:28 GMT 51.477402 -0.491193 775 270 148 2432
2021-09-15 17:36:27 GMT 51.477417 -0.489960 750 270 148 2432
2021-09-15 17:36:26 GMT 51.477448 -0.489040 700 270 148 2432
2021-09-15 17:36:24 GMT 51.477467 -0.486908 625 270 148 2432
2021-09-15 17:36:23 GMT 51.477448 -0.484735 550 270 148 2560
2021-09-15 17:36:21 GMT 51.477467 -0.483475 500 270 149 2624
2021-09-15 17:36:20 GMT 51.477493 -0.482285 450 270 148 2688
2021-09-15 17:36:18 GMT 51.477493 -0.480132 375 270 149 2752
2021-09-15 17:36:17 GMT 51.477493 -0.479019 325 269 150 2880
2021-09-15 17:36:16 GMT 51.477512 -0.476761 225 270 152 2688
2021-09-15 17:36:14 GMT 51.477558 -0.475616 175 270 152 2496
2021-09-15 17:36:13 GMT 51.477539 -0.472115 75 270 152 1920
2021-09-15 17:36:08 GMT 51.477585 -0.468181 25 270 140 64
2021-09-15 17:36:06 GMT 51.477558 -0.467148 50 270 140 64
2021-09-15 17:36:04 GMT 51.477585 -0.465137 50 270 116 64
2021-09-15 17:36:03 GMT 51.477585 -0.464098 50 270 116 64
2021-09-15 17:36:00 GMT 51.477585 -0.462094 50 270 116 64
2021-09-15 17:35:56 GMT 51.477604 -0.458679 50 270 99 64
2021-09-15 17:35:52 GMT 51.477619 -0.455561 0 270 82
2021-09-15 17:35:50 GMT 51.477619 -0.454559 0 270 72
2021-09-15 17:35:48 GMT 51.477631 -0.453464 0 270 62
2021-09-15 17:35:44 GMT 51.477627 -0.452061 0 270 47
2021-09-15 17:35:43 GMT 51.477627 -0.451565 0 270 38
2021-09-15 17:35:41 GMT 51.477631 -0.450978 0 270 28
2021-09-15 17:35:37 GMT 51.477642 -0.450291 0 270 17
2021-09-15 17:35:35 GMT 51.477638 -0.450039 0 270 16
2021-09-15 17:35:34 GMT 51.477638 -0.449944 0 272 15
2021-09-15 17:35:31 GMT 51.477627 -0.449600 0 292 14
2021-09-15 17:35:26 GMT 51.477470 -0.449122 0 320 14
2021-09-15 17:35:22 GMT 51.477280 -0.448875 0 326 13
2021-09-15 17:35:18 GMT 51.477116 -0.448714 0 326 13
2021-09-15 17:35:16 GMT 51.477020 -0.448608 0 326 13
2021-09-15 17:35:14 GMT 51.476933 -0.448509 0 326 13
2021-09-15 17:35:12 GMT 51.476852 -0.448417 0 326 12
2021-09-15 17:35:10 GMT 51.476753 -0.448303 0 326 12
2021-09-15 17:35:08 GMT 51.476662 -0.448208 0 331 12
2021-09-15 17:35:07 GMT 51.476521 -0.448064 0 348 12
2021-09-15 17:35:03 GMT 51.476406 -0.448008 0 8 12
2021-09-15 17:34:57 GMT 51.476116 -0.448112 0 56 12
2021-09-15 17:34:54 GMT 51.476017 -0.448342 0 78 14
2021-09-15 17:34:52 GMT 51.475983 -0.448547 0 87 15
2021-09-15 17:34:50 GMT 51.475975 -0.448780 0 90 17
2021-09-15 17:34:47 GMT 51.475975 -0.449142 0 90 20
2021-09-15 17:34:46 GMT 51.475971 -0.449289 0 90 21
2021-09-15 17:34:45 GMT 51.475971 -0.449437 0 90 22
2021-09-15 17:34:42 GMT 51.475975 -0.449944 0 90 25
2021-09-15 17:34:38 GMT 51.475975 -0.450821 0 90 30
2021-09-15 17:34:37 GMT 51.475975 -0.451031 0 90 31
2021-09-15 17:34:36 GMT 51.475971 -0.451163 0 90 31
2021-09-15 17:34:33 GMT 51.475971 -0.451794 0 90 31
2021-09-15 17:34:32 GMT 51.475964 -0.452118 0 90 31
2021-09-15 17:34:31 GMT 51.475960 -0.452332 0 90 31
2021-09-15 17:34:30 GMT 51.475964 -0.452652 0 90 30
2021-09-15 17:34:28 GMT 51.475960 -0.453019 0 90 30
2021-09-15 17:34:26 GMT 51.475960 -0.453483 0 90 30
2021-09-15 17:34:24 GMT 51.475964 -0.453930 0 90 29
2021-09-15 17:34:23 GMT 51.475960 -0.454151 0 90 29
2021-09-15 17:34:20 GMT 51.475960 -0.454763 0 90 29
2021-09-15 17:34:16 GMT 51.475952 -0.455360 0 90 29
2021-09-15 17:34:15 GMT 51.475952 -0.455589 0 90 28
2021-09-15 17:34:14 GMT 51.475960 -0.456081 0 90 28
2021-09-15 17:34:10 GMT 51.475948 -0.456768 0 90 28
2021-09-15 17:34:08 GMT 51.475948 -0.456990 0 90 27
2021-09-15 17:34:05 GMT 51.475941 -0.458488 0 90 26
2021-09-15 17:34:01 GMT 51.475941 -0.458488 0 90 26
2021-09-15 17:33:58 GMT 51.475941 -0.458984 0 90 26
2021-09-15 17:33:57 GMT 51.475937 -0.459254 0 90 26
2021-09-15 17:33:51 GMT 51.475937 -0.460331 0 90 24
2021-09-15 17:33:49 GMT 51.475941 -0.460663 0 90 24
2021-09-15 17:33:44 GMT 51.475937 -0.461556 0 90 23
2021-09-15 17:33:37 GMT 51.475925 -0.462762 0 90 25
2021-09-15 17:33:32 GMT 51.475925 -0.463653 0 90 29
2021-09-15 17:33:31 GMT 51.475929 -0.463867 0 90 29
2021-09-15 17:33:26 GMT 51.475918 -0.464973 0 90 29
2021-09-15 17:33:23 GMT 51.475925 -0.465768 0 90 29
2021-09-15 17:33:21 GMT 51.475914 -0.466158 0 90 29
2021-09-15 17:33:17 GMT 51.475914 -0.466956 0 90 28
2021-09-15 17:33:14 GMT 51.475918 -0.467567 0 90 28
2021-09-15 17:33:12 GMT 51.475906 -0.467987 0 87 28
2021-09-15 17:33:10 GMT 51.475906 -0.468311 0 84 28
2021-09-15 17:33:09 GMT 51.475883 -0.468616 0 84 28
2021-09-15 17:33:08 GMT 51.475868 -0.468979 0 84 28
2021-09-15 17:33:05 GMT 51.475834 -0.469833 0 90 28
2021-09-15 17:33:03 GMT 51.475834 -0.469833 0 90 28
2021-09-15 17:33:02 GMT 51.475834 -0.470238 0 90 27
2021-09-15 17:33:00 GMT 51.475834 -0.470428 0 90 27
2021-09-15 17:32:59 GMT 51.475834 -0.470835 0 90 27
2021-09-15 17:32:56 GMT 51.475822 -0.471439 0 90 26
2021-09-15 17:32:52 GMT 51.475822 -0.471930 0 90 26
2021-09-15 17:32:50 GMT 51.475822 -0.472317 0 90 26
2021-09-15 17:32:47 GMT 51.475822 -0.472746 0 90 25
2021-09-15 17:32:46 GMT 51.475822 -0.472913 0 90 25
2021-09-15 17:32:44 GMT 51.475822 -0.473470 0 90 25
2021-09-15 17:32:41 GMT 51.475822 -0.474008 0 90 24
2021-09-15 17:32:40 GMT 51.475822 -0.474008 0 90 24
2021-09-15 17:32:38 GMT 51.475822 -0.474379 0 90 24
2021-09-15 17:32:36 GMT 51.475811 -0.474796 0 90 24
2021-09-15 17:32:34 GMT 51.475811 -0.475140 0 90 23
2021-09-15 17:32:28 GMT 51.475811 -0.475994 0 90 23
2021-09-15 17:32:24 GMT 51.475811 -0.476903 0 90 22
2021-09-15 17:32:21 GMT 51.475811 -0.477390 0 90 21
2021-09-15 17:32:18 GMT 51.475811 -0.477695 0 90 21
2021-09-15 17:32:16 GMT 51.475800 -0.477924 0 90 21
2021-09-15 17:32:15 GMT 51.475800 -0.478611 0 90 20
2021-09-15 17:32:12 GMT 51.475800 -0.479056 0 90 20
2021-09-15 17:32:09 GMT 51.475800 -0.479056 0 90 19
2021-09-15 17:32:07 GMT 51.475800 -0.479279 0 90 19
2021-09-15 17:32:05 GMT 51.475800 -0.479507 0 90 19
2021-09-15 17:32:03 GMT 51.475800 -0.479854 0 90 19
2021-09-15 17:32:00 GMT 51.475800 -0.480213 0 90 18
2021-09-15 17:31:59 GMT 51.475800 -0.480429 0 90 18
2021-09-15 17:31:57 GMT 51.475800 -0.480670 0 90 18
2021-09-15 17:31:56 GMT 51.475800 -0.480804 0 90 17
2021-09-15 17:31:55 GMT 51.475800 -0.481014 0 90 17
2021-09-15 17:31:53 GMT 51.475788 -0.481186 0 90 17
2021-09-15 17:31:48 GMT 51.475788 -0.481739 0 90 16
2021-09-15 17:31:42 GMT 51.475788 -0.482433 0 90 15
2021-09-15 17:31:40 GMT 51.475788 -0.482934 0 90 14
2021-09-15 17:31:37 GMT 51.475788 -0.482934 0 90 14
2021-09-15 17:31:36 GMT 51.475788 -0.483055 0 90 14
2021-09-15 17:31:35 GMT 51.475788 -0.483170 0 90 14
2021-09-15 17:31:27 GMT 51.475777 -0.483932 0 90 12
2021-09-15 17:31:26 GMT 51.475788 -0.484029 0 87 12
2021-09-15 17:31:25 GMT 51.475788 -0.484104 0 84 12
2021-09-15 17:31:23 GMT 51.475788 -0.484276 0 73 12
2021-09-15 17:31:22 GMT 51.475788 -0.484363 0 64 11
2021-09-15 17:31:21 GMT 51.475754 -0.484549 0 50 11
2021-09-15 17:31:19 GMT 51.475731 -0.484600 0 45 11
2021-09-15 17:31:18 GMT 51.475674 -0.484734 0 30 10
2021-09-15 17:31:15 GMT 51.475639 -0.484790 0 25 10
2021-09-15 17:31:07 GMT 51.475334 -0.484924 0 0 10
2021-09-15 17:31:01 GMT 51.475021 -0.484924 0 0 14
2021-09-15 17:30:54 GMT 51.474632 -0.484920 0 0 12
2021-09-15 17:30:51 GMT 51.474449 -0.484924 0 0 12
2021-09-15 17:30:44 GMT 51.474091 -0.484924 0 0 11
2021-09-15 17:30:38 GMT 51.473808 -0.484920 0 0 10
2021-09-15 17:30:30 GMT 51.473495 -0.484924 0 0 8
2021-09-15 17:30:21 GMT 51.473183 -0.484924 0 0 6
2021-09-15 17:30:12 GMT 51.473007 -0.484924 0 0 4
2021-09-15 17:30:08 GMT 51.472927 -0.484920 0 0 4
2021-09-15 17:30:02 GMT 51.472870 -0.484924 0 0 2
2021-09-15 17:29:57 GMT 51.472832 -0.484924 0 0 2
2021-09-15 17:29:51 GMT 51.472767 -0.485013 0 0 0
2021-09-15 17:29:42 GMT 51.472832 -0.484924 0 0 0
2021-09-15 17:29:32 GMT 51.472836 -0.484902 0 0 0
2021-09-15 17:29:21 GMT 51.472832 -0.484886 0 0 0
2021-09-15 17:29:11 GMT 51.472813 -0.484883 0 0 0
2021-09-15 17:29:00 GMT 51.472820 -0.484886 0 0 0
2021-09-15 17:28:40 GMT 51.472809 -0.484867 0 0 0
2021-09-15 17:28:20 GMT 51.472820 -0.484867 0 0 0
2021-09-15 17:28:10 GMT 51.472824 -0.484865 0 0 0
2021-09-15 17:28:00 GMT 51.472820 -0.484867 0 0 0
2021-09-15 17:27:50 GMT 51.472809 -0.484867 0 0 0
2021-09-15 17:27:45 GMT 51.472809 -0.484886 0 0 0
2021-09-15 17:27:40 GMT 51.472813 -0.484883 0 0 0
2021-09-15 17:27:15 GMT 51.472797 -0.484886 0 0 0
2021-09-15 17:27:00 GMT 51.472801 -0.484865 0 0 0
2021-09-15 17:26:38 GMT 51.472790 -0.484865 0 0 2
2021-09-15 17:26:35 GMT 51.472786 -0.484867 0 0 2
2021-09-15 17:26:29 GMT 51.472733 -0.484865 0 0 3
2021-09-15 17:26:26 GMT 51.472698 -0.484865 0 0 3
2021-09-15 17:26:24 GMT 51.472679 -0.484867 0 0 3
2021-09-15 17:26:21 GMT 51.472645 -0.484867 0 0 3
2021-09-15 17:26:18 GMT 51.472630 -0.484865 0 0 3
2021-09-15 17:26:17 GMT 51.472607 -0.484865 0 0 3
2021-09-15 17:26:15 GMT 51.472584 -0.484865 0 0 3
2021-09-15 17:26:11 GMT 51.472553 -0.484867 0 0 3
2021-09-15 17:26:09 GMT 51.472519 -0.484867 0 0 3
2021-09-15 17:26:07 GMT 51.472507 -0.484867 0 0 3
2021-09-15 17:26:04 GMT 51.472485 -0.484867 0 0 3
2021-09-15 17:26:03 GMT 51.472458 -0.484865 0 0 3
2021-09-15 17:26:02 GMT 51.472446 -0.484865 0 0 3
2021-09-15 17:26:01 GMT 51.472439 -0.484867 0 0 3
2021-09-15 17:25:59 GMT 51.472424 -0.484865 0 0 3
2021-09-15 17:25:55 GMT 51.472378 -0.484865 0 0 3
2021-09-15 17:25:52 GMT 51.472343 -0.484867 0 0 3
2021-09-15 17:25:51 GMT 51.472332 -0.484865 0 0 3
2021-09-15 17:25:48 GMT 51.472309 -0.484867 0 0 3
2021-09-15 17:25:44 GMT 51.472275 -0.484886 0 0 3
2021-09-15 17:25:43 GMT 51.472240 -0.484883 0 0 3
2021-09-15 17:25:31 GMT 51.472122 -0.484886 0 0 3
2021-09-15 17:25:24 GMT 51.472057 -0.484902 0 0 3
2021-09-15 17:25:19 GMT 51.472008 -0.484905 0 0 3
2021-09-15 17:25:18 GMT 51.471996 -0.484905 0 0 3
2021-09-15 17:25:17 GMT 51.471977 -0.484902 0 0 3
2021-09-15 17:25:15 GMT 51.471966 -0.484902 0 0 3
2021-09-15 17:25:14 GMT 51.471935 -0.484905 0 0 3
2021-09-15 17:25:12 GMT 51.471931 -0.484902 0 0 3
2021-09-15 17:25:10 GMT 51.471912 -0.484905 0 0 3
2021-09-15 17:25:08 GMT 51.471889 -0.484905 0 0 3
2021-09-15 17:25:07 GMT 51.471878 -0.484924 0 0 3
2021-09-15 17:25:05 GMT 51.471851 -0.484920 0 0 3
2021-09-15 17:25:04 GMT 51.471840 -0.484920 0 0 3
2021-09-15 17:25:03 GMT 51.471832 -0.484924 0 0 3
2021-09-15 17:25:02 GMT 51.471809 -0.484924 0 0 3
2021-09-15 17:24:59 GMT 51.471794 -0.484939 0 0 3
2021-09-15 17:24:58 GMT 51.471783 -0.484939 0 0 2
2021-09-15 17:24:57 GMT 51.471760 -0.484939 0 357 2
2021-09-15 17:24:55 GMT 51.471748 -0.484943 0 357 2
2021-09-15 17:24:53 GMT 51.471737 -0.484957 0 357 2
2021-09-15 17:24:52 GMT 51.471725 -0.484943 0 357 1
2021-09-15 17:24:50 GMT 51.471714 -0.484962 0 357 0
2021-09-15 17:24:48 GMT 51.471714 -0.484957 0 357 0
2021-09-15 17:24:45 GMT 51.471703 -0.484962 0 354 0
2021-09-15 17:24:43 GMT 51.471714 -0.484962 0 354 0
2021-09-15 17:24:42 GMT 51.471703 -0.484976 0 354 0
2021-09-15 17:24:41 GMT 51.471703 -0.484976 0 357 2
2021-09-15 17:24:39 GMT 51.471714 -0.484982 0 357 2
2021-09-15 17:24:38 GMT 51.471725 -0.485001 0 354 2
2021-09-15 17:24:37 GMT 51.471725 -0.485001 0 354 2
2021-09-15 17:24:35 GMT 51.471737 -0.485013 0 351 3
2021-09-15 17:24:31 GMT 51.471760 -0.485050 0 345 3
2021-09-15 17:24:29 GMT 51.471783 -0.485087 0 340 3
2021-09-15 17:24:27 GMT 51.471794 -0.485106 0 337 3
2021-09-15 17:24:26 GMT 51.471806 -0.485143 0 334 3
2021-09-15 17:24:24 GMT 51.471809 -0.485153 0 331 3
2021-09-15 17:24:23 GMT 51.471828 -0.485180 0 329 3
2021-09-15 17:24:20 GMT 51.471832 -0.485210 0 326 3
2021-09-15 17:24:19 GMT 51.471863 -0.485217 0 323 3
2021-09-15 17:24:15 GMT 51.471886 -0.485273 0 315 3
2021-09-15 17:24:12 GMT 51.471886 -0.485328 0 309 3
2021-09-15 17:24:10 GMT 51.471889 -0.485363 0 306 3
2021-09-15 17:24:06 GMT 51.471897 -0.485421 0 298 3
2021-09-15 17:24:05 GMT 51.471897 -0.485458 0 292 3
2021-09-15 17:24:03 GMT 51.471889 -0.485535 0 284 3
2021-09-15 17:24:01 GMT 51.471886 -0.485551 0 284 3
2021-09-15 17:23:59 GMT 51.471889 -0.485573 0 281 3
2021-09-15 17:23:58 GMT 51.471889 -0.485592 0 281 3
2021-09-15 17:23:56 GMT 51.471886 -0.485625 0 278 3
2021-09-15 17:23:55 GMT 51.471874 -0.485700 0 275 3
2021-09-15 17:23:52 GMT 51.471874 -0.485737 0 272 3
2021-09-15 17:23:50 GMT 51.471878 -0.485764 0 272 3
2021-09-15 17:23:47 GMT 51.471878 -0.485783 0 272 3
2021-09-15 17:23:45 GMT 51.471878 -0.485821 0 272 3
2021-09-15 17:23:43 GMT 51.471874 -0.485867 0 272 3
2021-09-15 17:23:42 GMT 51.471874 -0.485867 0 272 3
2021-09-15 17:23:39 GMT 51.471874 -0.485922 0 272 2
2021-09-15 17:23:38 GMT 51.471878 -0.485935 0 270 1
2021-09-15 17:23:37 GMT 51.471863 -0.485922 0 270 1
2021-09-15 17:23:35 GMT 51.471863 -0.485922 0 270 1
2021-09-15 17:23:33 GMT 51.471867 -0.485916 0 270 1
2021-09-15 17:23:32 GMT 51.471867 -0.485897 0 270 2
2021-09-15 17:23:30 GMT 51.471855 -0.485916 0 270 3
2021-09-15 17:23:28 GMT 51.471863 -0.485941 0 270 3
2021-09-15 17:23:27 GMT 51.471855 -0.485973 0 270 3
2021-09-15 17:23:23 GMT 51.471863 -0.486034 0 270 3
2021-09-15 17:23:20 GMT 51.471863 -0.486071 0 270 2
2021-09-15 17:23:19 GMT 51.471863 -0.486089 0 270 2
2021-09-15 17:23:16 GMT 51.471863 -0.486126 0 270 0

Making use of Plane Finder data

You are free to use the raw flight data, aircraft information and images provided in this report for your own purposes provided the data is correctly attributed to Plane Finder. We ask that you please credit Plane Finder and link to planefinder.net in close proximity to the content.

Optionally one of the following logos (no smaller then 150x24px) can be used and must link to planefinder.net

Embedding the Plane Finder map

You are welcome to embed the Plane Finder playback map on your website to offer visitors a more interactive experience. We suggest using the following HTML code:

<iframe src="//planefinder.net/data/report/BA1492-G-EUYF-7700-squawk-2021-09-15/map" width="800" height="600" seamless="seamless"></iframe>

Where our data comes from

Plane Finder has a global network of data feeds and antenna radars that receive data broadcast directly from aircraft. The primary technologies used are ADS-B and MLAT. We also show feeds from the FAA and a FLARM glider feed.

Click here to find out more about the Plane Finder network.

How we collect our data